Time,TemperatureF,DewpointF,PressureIn,WindDirection,WindDirectionDegrees,WindSpeedMPH,WindSpeedGustMPH,Humidity,HourlyPrecipIn,Conditions,Clouds,dailyrainin,SoftwareType,DateUTC
2013-01-20 00:00:00,60.2,58.2,30.19,NNE,22,0.0,0.0,93,0.00,CLR,SCT,0.00,WeatherDisplay:10.37,2013-01-20 05:00:00,
2013-01-20 00:01:00,60.3,58.3,30.19,NNE,22,0.0,0.0,93,0.00,CLR,SCT,0.00,WeatherDisplay:10.37,2013-01-20 05:01:00,
2013-01-20 00:03:00,60.2,58.2,30.19,North,355,1.1,1.1,93,0.00,CLR,SCT,0.00,WeatherDisplay:10.37,2013-01-20 05:03:00,
2013-01-20 00:06:00,60.2,58.2,30.19,NNE,28,1.1,1.1,93,0.00,CLR,SCT,0.00,WeatherDisplay:10.37,2013-01-20 05:06:00,
2013-01-20 00:08:00,60.2,58.2,30.18,NNE,25,1.1,1.1,93,0.00,CLR,SCT,0.00,WeatherDisplay:10.37,2013-01-20 05:08:00,
2013-01-20 00:11:00,60.1,58.1,30.18,NNE,23,0.0,0.0,93,0.00,CLR,SCT,0.00,WeatherDisplay:10.37,2013-01-20 05:11:00,
2013-01-20 00:13:00,60.1,58.4,30.19,NNE,23,1.1,1.1,94,0.00,CLR,SCT,0.00,WeatherDisplay:10.37,2013-01-20 05:13:00,
2013-01-20 00:16:00,60.1,58.4,30.18,NNE,30,0.0,0.0,94,0.00,CLR,SCT,0.00,WeatherDisplay:10.37,2013-01-20 05:16:00,
2013-01-20 00:18:00,60.1,58.4,30.18,NNE,30,0.0,0.0,94,0.00,CLR,SCT,0.00,WeatherDisplay:10.37,2013-01-20 05:18:00,
2013-01-20 00:21:00,60.1,58.4,30.18,NW,319,1.1,1.1,94,0.00,CLR,SCT,0.00,WeatherDisplay:10.37,2013-01-20 05:21:00,
2013-01-20 00:23:00,60.0,58.3,30.18,NW,319,0.0,0.0,94,0.00,CLR,SCT,0.00,WeatherDisplay:10.37,2013-01-20 05:23:00,
2013-01-20 00:26:00,60.0,58.3,30.18,ENE,61,0.0,0.0,94,0.00,CLR,SCT,0.00,WeatherDisplay:10.37,2013-01-20 05:26:00,
2013-01-20 00:28:00,60.1,58.4,30.18,NE,56,0.0,0.0,94,0.00,CLR,SCT,0.00,WeatherDisplay:10.37,2013-01-20 05:28:00,
2013-01-20 00:29:00,60.0,58.3,30.19,NE,55,0.0,0.0,94,0.00,CLR,SCT,0.00,WeatherDisplay:10.37,2013-01-20 05:29:00,
2013-01-20 00:31:00,60.1,58.4,30.18,NE,55,0.0,0.0,94,0.00,CLR,SCT,0.00,WeatherDisplay:10.37,2013-01-20 05:31:00,
2013-01-20 00:32:00,60.1,58.4,30.18,NE,56,0.0,0.0,94,0.00,CLR,SCT,0.00,WeatherDisplay:10.37,2013-01-20 05:32:00,
2013-01-20 00:33:00,60.1,58.4,30.18,NE,55,0.0,0.0,94,0.00,CLR,SCT,0.00,WeatherDisplay:10.37,2013-01-20 05:33:00,
2013-01-20 00:34:00,60.1,58.4,30.18,NE,55,1.1,0.0,94,0.00,CLR,SCT,0.00,WeatherDisplay:10.37,2013-01-20 05:34:00,
2013-01-20 00:37:00,60.1,58.4,30.18,NE,56,1.1,1.1,94,0.00,CLR,SCT,0.00,WeatherDisplay:10.37,2013-01-20 05:37:00,
2013-01-20 00:38:00,60.1,58.4,30.18,NE,55,1.1,0.0,94,0.00,CLR,SCT,0.00,WeatherDisplay:10.37,2013-01-20 05:38:00,
2013-01-20 00:39:00,60.1,58.4,30.18,NE,54,1.1,0.0,94,0.00,CLR,SCT,0.00,WeatherDisplay:10.37,2013-01-20 05:39:00,
2013-01-20 00:42:00,60.1,58.4,30.18,NE,44,0.0,0.0,94,0.00,CLR,SCT,0.00,WeatherDisplay:10.37,2013-01-20 05:42:00,
2013-01-20 00:43:00,60.1,58.4,30.18,NE,44,0.0,0.0,94,0.00,CLR,SCT,0.00,WeatherDisplay:10.37,2013-01-20 05:43:00,
2013-01-20 00:44:00,60.1,58.4,30.18,NE,44,1.1,1.1,94,0.00,CLR,SCT,0.00,WeatherDisplay:10.37,2013-01-20 05:44:00,
2013-01-20 00:47:00,60.1,58.4,30.17,North,8,1.1,1.1,94,0.00,CLR,SCT,0.00,WeatherDisplay:10.37,2013-01-20 05:47:00,
2013-01-20 00:48:00,60.1,58.4,30.17,North,6,1.1,1.1,94,0.00,CLR,SCT,0.00,WeatherDisplay:10.37,2013-01-20 05:48:00,
2013-01-20 00:49:00,60.1,58.4,30.17,North,10,1.1,1.1,94,0.00,CLR,SCT,0.00,WeatherDisplay:10.37,2013-01-20 05:49:00,
2013-01-20 00:52:00,60.1,58.4,30.17,NNE,20,1.0,0.0,94,0.00,CLR,SCT,0.00,WeatherDisplay:10.37,2013-01-20 05:52:00,
2013-01-20 00:53:00,60.1,58.4,30.17,NNE,25,1.1,1.1,94,0.00,CLR,SCT,0.00,WeatherDisplay:10.37,2013-01-20 05:53:00,
2013-01-20 00:54:00,60.1,58.4,30.17,NNE,25,0.0,0.0,94,0.00,CLR,SCT,0.00,WeatherDisplay:10.37,2013-01-20 05:54:00,
2013-01-20 00:57:00,60.1,58.4,30.16,North,9,1.1,1.1,94,0.00,CLR,SCT,0.00,WeatherDisplay:10.37,2013-01-20 05:57:00,
2013-01-20 00:58:00,60.1,58.4,30.16,North,9,1.1,0.0,94,0.00,CLR,SCT,0.00,WeatherDisplay:10.37,2013-01-20 05:58:00,
2013-01-20 00:59:00,60.1,58.4,30.16,NNE,25,1.1,0.0,94,0.00,CLR,SCT,0.00,WeatherDisplay:10.37,2013-01-20 05:59:00,
2013-01-20 01:02:00,60.0,58.3,30.17,North,4,0.0,0.0,94,0.00,CLR,SCT,0.00,WeatherDisplay:10.37,2013-01-20 06:02:00,
2013-01-20 01:03:00,60.0,58.3,30.16,North,4,1.1,0.0,94,0.00,CLR,SCT,0.00,WeatherDisplay:10.37,2013-01-20 06:03:00,
2013-01-20 01:04:00,60.0,58.3,30.16,North,4,0.0,0.0,94,0.00,CLR,SCT,0.00,WeatherDisplay:10.37,2013-01-20 06:04:00,
2013-01-20 01:05:00,60.0,58.3,30.16,North,11,0.0,1.0,94,0.00,CLR,SCT,0.00,WeatherDisplay:10.37,2013-01-20 06:05:00,
2013-01-20 01:07:00,60.0,58.6,30.16,NNW,333,1.1,0.0,95,0.00,CLR,SCT,0.00,WeatherDisplay:10.37,2013-01-20 06:07:00,
2013-01-20 01:08:00,60.0,58.6,30.16,NNE,22,0.0,0.0,95,0.00,CLR,SCT,0.00,WeatherDisplay:10.37,2013-01-20 06:08:00,
2013-01-20 01:09:00,60.0,58.6,30.16,NNE,22,0.0,0.0,95,0.00,CLR,SCT,0.00,WeatherDisplay:10.37,2013-01-20 06:09:00,
2013-01-20 01:10:00,59.9,58.5,30.16,NNE,22,0.0,0.0,95,0.00,CLR,SCT,0.00,WeatherDisplay:10.37,2013-01-20 06:10:00,
2013-01-20 01:12:00,59.9,58.5,30.16,NNE,23,1.1,1.1,95,0.00,CLR,SCT,0.00,WeatherDisplay:10.37,2013-01-20 06:12:00,
2013-01-20 01:14:00,59.9,58.5,30.16,NNE,22,0.0,0.0,95,0.00,CLR,SCT,0.00,WeatherDisplay:10.37,2013-01-20 06:14:00,
2013-01-20 01:15:00,59.9,58.5,30.16,NNE,27,0.0,0.0,95,0.00,CLR,SCT,0.00,WeatherDisplay:10.37,2013-01-20 06:15:00,
2013-01-20 01:17:00,59.9,58.5,30.15,NE,38,1.1,0.0,95,0.00,CLR,SCT,0.00,WeatherDisplay:10.37,2013-01-20 06:17:00,
2013-01-20 01:19:00,59.9,58.5,30.15,East,79,0.0,0.0,95,0.00,CLR,SCT,0.00,WeatherDisplay:10.37,2013-01-20 06:19:00,
2013-01-20 01:20:00,59.9,58.5,30.15,North,356,1.1,1.1,95,0.00,CLR,SCT,0.00,WeatherDisplay:10.37,2013-01-20 06:20:00,
2013-01-20 01:23:00,59.9,58.5,30.15,NNE,23,0.0,0.0,95,0.00,CLR,SCT,0.00,WeatherDisplay:10.37,2013-01-20 06:23:00,
2013-01-20 01:24:00,59.9,58.5,30.15,NNE,29,0.0,0.0,95,0.00,CLR,SCT,0.00,WeatherDisplay:10.37,2013-01-20 06:24:00,
2013-01-20 01:26:00,59.9,58.5,30.15,NE,38,3.5,3.5,95,0.00,CLR,SCT,0.00,WeatherDisplay:10.37,2013-01-20 06:26:00,
2013-01-20 01:28:00,59.9,58.5,30.15,NE,49,3.5,3.5,95,0.00,CLR,SCT,0.00,WeatherDisplay:10.37,2013-01-20 06:28:00,
2013-01-20 01:29:00,59.8,58.4,30.15,NE,49,2.3,2.3,95,0.00,CLR,SCT,0.00,WeatherDisplay:10.37,2013-01-20 06:29:00,
2013-01-20 01:31:00,59.8,58.4,30.15,NE,52,2.0,2.0,95,0.00,CLR,SCT,0.00,WeatherDisplay:10.37,2013-01-20 06:31:00,
2013-01-20 01:33:00,59.9,58.5,30.15,East,79,1.1,0.0,95,0.00,CLR,SCT,0.00,WeatherDisplay:10.37,2013-01-20 06:33:00,
2013-01-20 01:34:00,59.8,58.4,30.15,NE,36,3.5,3.5,95,0.00,CLR,SCT,0.00,WeatherDisplay:10.37,2013-01-20 06:34:00,
2013-01-20 01:37:00,59.8,58.4,30.15,NNE,26,0.0,0.0,95,0.00,CLR,SCT,0.00,WeatherDisplay:10.37,2013-01-20 06:37:00,
2013-01-20 01:38:00,59.8,58.4,30.15,NNE,27,3.5,3.5,95,0.00,CLR,SCT,0.00,WeatherDisplay:10.37,2013-01-20 06:38:00,
2013-01-20 01:39:00,59.8,58.4,30.15,NE,53,5.0,5.0,95,0.00,CLR,SCT,0.00,WeatherDisplay:10.37,2013-01-20 06:39:00,
2013-01-20 01:42:00,59.8,58.4,30.15,North,350,1.1,1.1,95,0.00,CLR,SCT,0.00,WeatherDisplay:10.37,2013-01-20 06:42:00,
2013-01-20 01:43:00,59.8,58.4,30.15,NNW,339,1.1,1.1,95,0.00,CLR,SCT,0.00,WeatherDisplay:10.37,2013-01-20 06:43:00,
2013-01-20 01:44:00,59.9,58.5,30.15,NW,319,2.3,2.3,95,0.00,CLR,SCT,0.00,WeatherDisplay:10.37,2013-01-20 06:44:00,
2013-01-20 01:47:00,59.8,58.4,30.15,NNW,327,1.1,0.0,95,0.00,CLR,SCT,0.00,WeatherDisplay:10.37,2013-01-20 06:47:00,
2013-01-20 01:49:00,59.9,58.2,30.15,NNE,25,1.1,1.1,94,0.00,CLR,SCT,0.00,WeatherDisplay:10.37,2013-01-20 06:49:00,
2013-01-20 01:52:00,59.8,58.1,30.15,North,4,1.1,1.1,94,0.00,CLR,SCT,0.00,WeatherDisplay:10.37,2013-01-20 06:52:00,
2013-01-20 01:54:00,59.7,58.0,30.15,North,4,0.0,0.0,94,0.00,CLR,SCT,0.00,WeatherDisplay:10.37,2013-01-20 06:54:00,
2013-01-20 01:55:00,59.7,58.0,30.15,NNW,347,1.1,0.0,94,0.00,CLR,SCT,0.00,WeatherDisplay:10.37,2013-01-20 06:55:00,
2013-01-20 01:57:00,59.7,58.0,30.15,NNE,30,1.1,1.1,94,0.00,CLR,SCT,0.00,WeatherDisplay:10.37,2013-01-20 06:57:00,
2013-01-20 01:59:00,59.6,57.9,30.15,NE,37,1.1,1.1,94,0.00,CLR,SCT,0.00,WeatherDisplay:10.37,2013-01-20 06:59:00,
2013-01-20 02:00:00,59.6,57.9,30.15,North,9,1.1,1.1,94,0.00,CLR,SCT,0.00,WeatherDisplay:10.37,2013-01-20 07:00:00,
2013-01-20 02:03:00,59.6,57.9,30.15,NNE,16,0.0,0.0,94,0.00,CLR,SCT,0.00,WeatherDisplay:10.37,2013-01-20 07:03:00,
2013-01-20 02:04:00,59.5,57.8,30.16,NNE,16,0.0,0.0,94,0.00,CLR,SCT,0.00,WeatherDisplay:10.37,2013-01-20 07:04:00,
2013-01-20 02:05:00,59.5,57.8,30.16,NNE,16,0.0,0.0,94,0.00,CLR,SCT,0.00,WeatherDisplay:10.37,2013-01-20 07:05:00,
2013-01-20 02:08:00,59.4,57.7,30.16,NNE,15,0.0,0.0,94,0.00,CLR,SCT,0.00,WeatherDisplay:10.37,2013-01-20 07:08:00,
2013-01-20 02:10:00,59.4,57.7,30.15,NNE,23,0.0,0.0,94,0.00,CLR,SCT,0.00,WeatherDisplay:10.37,2013-01-20 07:10:00,
2013-01-20 02:13:00,59.3,57.6,30.15,NNE,23,0.0,0.0,94,0.00,CLR,SCT,0.00,WeatherDisplay:10.37,2013-01-20 07:13:00,
2013-01-20 02:15:00,59.3,57.9,30.16,NNE,23,0.0,0.0,95,0.00,CLR,SCT,0.00,WeatherDisplay:10.37,2013-01-20 07:15:00,
2013-01-20 02:18:00,59.1,57.7,30.15,NNE,23,0.0,0.0,95,0.00,CLR,SCT,0.00,WeatherDisplay:10.37,2013-01-20 07:18:00,
2013-01-20 02:20:00,59.1,57.7,30.15,NNE,23,0.0,0.0,95,0.00,CLR,SCT,0.00,WeatherDisplay:10.37,2013-01-20 07:20:00,
2013-01-20 02:23:00,59.0,57.6,30.15,NNE,23,0.0,0.0,95,0.00,CLR,SCT,0.00,WeatherDisplay:10.37,2013-01-20 07:23:00,
2013-01-20 02:25:00,58.9,57.5,30.15,NNE,23,0.0,0.0,95,0.00,CLR,SCT,0.00,WeatherDisplay:10.37,2013-01-20 07:25:00,
2013-01-20 02:26:00,58.9,57.5,30.15,NNE,23,0.0,0.0,95,0.00,CLR,SCT,0.00,WeatherDisplay:10.37,2013-01-20 07:26:00,
2013-01-20 02:28:00,58.9,57.5,30.15,NNE,23,0.0,0.0,95,0.00,CLR,SCT,0.00,WeatherDisplay:10.37,2013-01-20 07:28:00,
2013-01-20 02:30:00,58.9,57.5,30.15,NNE,23,0.0,0.0,95,0.00,CLR,SCT,0.00,WeatherDisplay:10.37,2013-01-20 07:30:00,
2013-01-20 02:31:00,58.9,57.5,30.15,NNE,23,0.0,0.0,95,0.00,CLR,SCT,0.00,WeatherDisplay:10.37,2013-01-20 07:31:00,
2013-01-20 02:33:00,58.8,57.4,30.15,NNE,23,0.0,0.0,95,0.00,CLR,SCT,0.00,WeatherDisplay:10.37,2013-01-20 07:33:00,
2013-01-20 02:35:00,58.8,57.4,30.14,NNE,23,0.0,0.0,95,0.00,CLR,SCT,0.00,WeatherDisplay:10.37,2013-01-20 07:35:00,
2013-01-20 02:36:00,58.8,57.4,30.15,NNE,23,0.0,0.0,95,0.00,CLR,SCT,0.00,WeatherDisplay:10.37,2013-01-20 07:36:00,
2013-01-20 02:38:00,58.8,57.4,30.15,NNE,23,0.0,0.0,95,0.00,CLR,SCT,0.00,WeatherDisplay:10.37,2013-01-20 07:38:00,
2013-01-20 02:40:00,58.8,57.4,30.15,NNE,23,0.0,0.0,95,0.00,CLR,SCT,0.00,WeatherDisplay:10.37,2013-01-20 07:40:00,
2013-01-20 02:41:00,58.8,57.4,30.15,NNE,23,0.0,0.0,95,0.00,CLR,SCT,0.00,WeatherDisplay:10.37,2013-01-20 07:41:00,
2013-01-20 02:44:00,58.8,57.4,30.15,NNW,341,0.0,0.0,95,0.00,CLR,SCT,0.00,WeatherDisplay:10.37,2013-01-20 07:44:00,
2013-01-20 02:45:00,58.8,57.4,30.15,NNW,342,0.0,0.0,95,0.00,CLR,SCT,0.00,WeatherDisplay:10.37,2013-01-20 07:45:00,
2013-01-20 02:46:00,58.8,57.4,30.15,NNW,342,0.0,0.0,95,0.00,CLR,SCT,0.00,WeatherDisplay:10.37,2013-01-20 07:46:00,
2013-01-20 02:50:00,58.8,57.4,30.15,NNW,342,0.0,0.0,95,0.00,CLR,SCT,0.00,WeatherDisplay:10.37,2013-01-20 07:50:00,
2013-01-20 02:51:00,58.9,57.5,30.15,NNW,341,0.0,0.0,95,0.00,CLR,SCT,0.00,WeatherDisplay:10.37,2013-01-20 07:51:00,
2013-01-20 02:52:00,58.8,57.4,30.15,NNW,342,0.0,0.0,95,0.00,CLR,SCT,0.00,WeatherDisplay:10.37,2013-01-20 07:52:00,
2013-01-20 02:55:00,58.8,57.4,30.15,NNW,342,0.0,0.0,95,0.00,CLR,SCT,0.00,WeatherDisplay:10.37,2013-01-20 07:55:00,
2013-01-20 02:56:00,58.8,57.4,30.15,NNW,342,0.0,0.0,95,0.00,CLR,SCT,0.00,WeatherDisplay:10.37,2013-01-20 07:56:00,
2013-01-20 02:57:00,58.8,57.4,30.15,NNW,342,0.0,0.0,95,0.00,CLR,SCT,0.00,WeatherDisplay:10.37,2013-01-20 07:57:00,
2013-01-20 03:00:00,58.8,57.4,30.15,NNW,341,0.0,0.0,95,0.00,CLR,SCT,0.00,WeatherDisplay:10.37,2013-01-20 08:00:00,
2013-01-20 03:01:00,58.8,57.4,30.15,NNW,342,0.0,0.0,95,0.00,CLR,SCT,0.00,WeatherDisplay:10.37,2013-01-20 08:01:00,
2013-01-20 03:02:00,58.8,57.7,30.15,NNW,345,0.0,0.0,96,0.00,CLR,SCT,0.00,WeatherDisplay:10.37,2013-01-20 08:02:00,
2013-01-20 03:05:00,58.8,57.7,30.15,NNW,330,0.0,0.0,96,0.00,CLR,SCT,0.00,WeatherDisplay:10.37,2013-01-20 08:05:00,
2013-01-20 03:06:00,58.9,57.8,30.15,NNW,330,0.0,0.0,96,0.00,CLR,SCT,0.00,WeatherDisplay:10.37,2013-01-20 08:06:00,
2013-01-20 03:07:00,58.9,57.8,30.15,NNW,330,0.0,0.0,96,0.00,CLR,SCT,0.00,WeatherDisplay:10.37,2013-01-20 08:07:00,
2013-01-20 03:08:00,58.8,57.7,30.16,NW,317,1.1,1.1,96,0.00,CLR,SCT,0.00,WeatherDisplay:10.37,2013-01-20 08:08:00,
2013-01-20 03:10:00,58.9,57.8,30.16,NW,318,0.0,0.0,96,0.00,CLR,SCT,0.00,WeatherDisplay:10.37,2013-01-20 08:10:00,
2013-01-20 03:11:00,58.9,57.8,30.16,NW,317,0.0,0.0,96,0.00,CLR,SCT,0.00,WeatherDisplay:10.37,2013-01-20 08:11:00,
2013-01-20 03:12:00,58.9,57.8,30.16,NW,318,0.0,0.0,96,0.00,CLR,SCT,0.00,WeatherDisplay:10.37,2013-01-20 08:12:00,
2013-01-20 03:13:00,58.9,57.8,30.16,NW,317,0.0,0.0,96,0.00,CLR,SCT,0.00,WeatherDisplay:10.37,2013-01-20 08:13:00,
2013-01-20 03:16:00,58.9,57.8,30.16,NNE,22,0.0,0.0,96,0.00,CLR,SCT,0.00,WeatherDisplay:10.37,2013-01-20 08:16:00,
2013-01-20 03:17:00,58.9,57.8,30.15,NNE,22,0.0,0.0,96,0.00,CLR,SCT,0.00,WeatherDisplay:10.37,2013-01-20 08:17:00,
2013-01-20 03:18:00,58.9,57.8,30.15,NNE,22,0.0,0.0,96,0.00,CLR,SCT,0.00,WeatherDisplay:10.37,2013-01-20 08:18:00,
2013-01-20 03:21:00,58.8,57.7,30.16,NNE,22,0.0,0.0,96,0.00,CLR,SCT,0.00,WeatherDisplay:10.37,2013-01-20 08:21:00,
2013-01-20 03:22:00,58.9,57.8,30.16,NNE,22,0.0,0.0,96,0.00,CLR,SCT,0.00,WeatherDisplay:10.37,2013-01-20 08:22:00,
2013-01-20 03:23:00,58.8,57.7,30.16,NNE,22,0.0,0.0,96,0.00,CLR,SCT,0.00,WeatherDisplay:10.37,2013-01-20 08:23:00,
2013-01-20 03:26:00,58.8,57.7,30.16,NNE,22,0.0,0.0,96,0.00,CLR,SCT,0.00,WeatherDisplay:10.37,2013-01-20 08:26:00,
2013-01-20 03:27:00,58.8,57.7,30.16,NNE,22,0.0,0.0,96,0.00,CLR,SCT,0.00,WeatherDisplay:10.37,2013-01-20 08:27:00,
2013-01-20 03:28:00,58.8,57.7,30.15,NNE,22,0.0,0.0,96,0.00,CLR,SCT,0.00,WeatherDisplay:10.37,2013-01-20 08:28:00,
2013-01-20 03:31:00,58.8,57.7,30.15,NNE,22,0.0,0.0,96,0.00,CLR,SCT,0.00,WeatherDisplay:10.37,2013-01-20 08:31:00,
2013-01-20 03:32:00,58.8,57.7,30.15,NNE,20,0.0,0.0,96,0.00,CLR,SCT,0.00,WeatherDisplay:10.37,2013-01-20 08:32:00,
2013-01-20 03:33:00,58.8,57.7,30.15,NNE,20,0.0,0.0,96,0.00,CLR,SCT,0.00,WeatherDisplay:10.37,2013-01-20 08:33:00,
2013-01-20 03:36:00,58.8,57.7,30.15,NNE,20,0.0,0.0,96,0.00,CLR,SCT,0.00,WeatherDisplay:10.37,2013-01-20 08:36:00,
2013-01-20 03:37:00,58.7,57.6,30.16,NNE,20,0.0,0.0,96,0.00,CLR,SCT,0.00,WeatherDisplay:10.37,2013-01-20 08:37:00,
2013-01-20 03:38:00,58.7,57.6,30.16,NNE,20,0.0,0.0,96,0.00,CLR,SCT,0.00,WeatherDisplay:10.37,2013-01-20 08:38:00,
2013-01-20 03:39:00,58.7,57.6,30.16,NNE,20,0.0,0.0,96,0.00,CLR,SCT,0.00,WeatherDisplay:10.37,2013-01-20 08:39:00,
2013-01-20 03:41:00,58.7,57.6,30.16,NNE,20,0.0,0.0,96,0.00,CLR,SCT,0.00,WeatherDisplay:10.37,2013-01-20 08:41:00,
2013-01-20 03:43:00,58.7,57.6,30.16,NNE,20,0.0,0.0,96,0.00,CLR,SCT,0.00,WeatherDisplay:10.37,2013-01-20 08:43:00,
2013-01-20 03:44:00,58.7,57.6,30.16,NNE,20,0.0,0.0,96,0.00,CLR,SCT,0.00,WeatherDisplay:10.37,2013-01-20 08:44:00,
2013-01-20 03:46:00,58.7,57.6,30.15,NNE,20,0.0,0.0,96,0.00,CLR,SCT,0.00,WeatherDisplay:10.37,2013-01-20 08:46:00,
2013-01-20 03:48:00,58.7,57.6,30.15,NNE,20,0.0,0.0,96,0.00,CLR,SCT,0.00,WeatherDisplay:10.37,2013-01-20 08:48:00,
2013-01-20 03:49:00,58.7,57.6,30.15,NNE,20,0.0,0.0,96,0.00,CLR,SCT,0.00,WeatherDisplay:10.37,2013-01-20 08:49:00,
2013-01-20 03:51:00,58.7,57.6,30.15,NE,40,1.0,0.0,96,0.00,CLR,SCT,0.00,WeatherDisplay:10.37,2013-01-20 08:51:00,
2013-01-20 03:53:00,58.7,57.6,30.15,NE,40,0.0,0.0,96,0.00,CLR,SCT,0.00,WeatherDisplay:10.37,2013-01-20 08:53:00,
2013-01-20 03:54:00,58.7,57.6,30.15,NE,40,0.0,0.0,96,0.00,CLR,SCT,0.00,WeatherDisplay:10.37,2013-01-20 08:54:00,
2013-01-20 03:57:00,58.7,57.6,30.15,NE,49,0.0,0.0,96,0.00,CLR,SCT,0.00,WeatherDisplay:10.37,2013-01-20 08:57:00,
2013-01-20 03:58:00,58.8,57.7,30.15,NNE,28,0.0,0.0,96,0.00,CLR,SCT,0.00,WeatherDisplay:10.37,2013-01-20 08:58:00,
2013-01-20 03:59:00,58.7,57.6,30.15,North,5,1.1,0.0,96,0.00,CLR,SCT,0.00,WeatherDisplay:10.37,2013-01-20 08:59:00,
2013-01-20 04:02:00,58.7,57.6,30.15,NE,53,0.0,0.0,96,0.00,CLR,SCT,0.00,WeatherDisplay:10.37,2013-01-20 09:02:00,
2013-01-20 04:03:00,58.7,57.6,30.15,NNE,20,0.0,0.0,96,0.00,CLR,SCT,0.00,WeatherDisplay:10.37,2013-01-20 09:03:00,
2013-01-20 04:04:00,58.7,57.6,30.14,NE,39,0.0,0.0,96,0.00,CLR,SCT,0.00,WeatherDisplay:10.37,2013-01-20 09:04:00,
2013-01-20 04:05:00,58.7,57.6,30.15,NE,39,0.0,0.0,96,0.00,CLR,SCT,0.00,WeatherDisplay:10.37,2013-01-20 09:05:00,
2013-01-20 04:07:00,58.7,57.6,30.15,North,8,1.1,1.1,96,0.00,CLR,SCT,0.00,WeatherDisplay:10.37,2013-01-20 09:07:00,
2013-01-20 04:08:00,58.7,57.6,30.14,NNW,348,1.1,1.1,96,0.00,CLR,SCT,0.00,WeatherDisplay:10.37,2013-01-20 09:08:00,
2013-01-20 04:09:00,58.7,57.6,30.14,NNE,22,1.1,1.1,96,0.00,CLR,SCT,0.00,WeatherDisplay:10.37,2013-01-20 09:09:00,
2013-01-20 04:10:00,58.7,57.6,30.14,NNE,23,1.1,0.0,96,0.00,CLR,SCT,0.00,WeatherDisplay:10.37,2013-01-20 09:10:00,
2013-01-20 04:12:00,58.7,57.6,30.14,North,358,1.1,1.1,96,0.00,CLR,SCT,0.00,WeatherDisplay:10.37,2013-01-20 09:12:00,
2013-01-20 04:14:00,58.7,57.6,30.14,North,6,1.1,1.1,96,0.00,CLR,SCT,0.00,WeatherDisplay:10.37,2013-01-20 09:14:00,
2013-01-20 04:15:00,58.7,57.6,30.15,NNE,15,1.1,1.1,96,0.00,CLR,SCT,0.00,WeatherDisplay:10.37,2013-01-20 09:15:00,
2013-01-20 04:17:00,58.7,57.9,30.14,NNW,348,0.0,0.0,97,0.00,CLR,SCT,0.00,WeatherDisplay:10.37,2013-01-20 09:17:00,
2013-01-20 04:19:00,58.7,57.9,30.14,NNW,343,1.1,1.1,97,0.00,CLR,SCT,0.00,WeatherDisplay:10.37,2013-01-20 09:19:00,
2013-01-20 04:20:00,58.7,57.9,30.14,NNW,343,0.0,0.0,97,0.00,CLR,SCT,0.00,WeatherDisplay:10.37,2013-01-20 09:20:00,
2013-01-20 04:22:00,58.7,57.9,30.14,NNW,335,1.1,1.1,97,0.00,CLR,SCT,0.00,WeatherDisplay:10.37,2013-01-20 09:22:00,
2013-01-20 04:24:00,58.7,57.9,30.14,NNW,348,2.3,2.3,97,0.00,CLR,SCT,0.00,WeatherDisplay:10.37,2013-01-20 09:24:00,
2013-01-20 04:25:00,58.7,57.9,30.14,NNW,343,1.1,1.1,97,0.00,CLR,SCT,0.00,WeatherDisplay:10.37,2013-01-20 09:25:00,
2013-01-20 04:28:00,58.8,58.0,30.14,NNE,20,2.3,2.3,97,0.00,CLR,SCT,0.00,WeatherDisplay:10.37,2013-01-20 09:28:00,
2013-01-20 04:29:00,58.8,58.0,30.14,North,5,2.3,2.3,97,0.00,CLR,SCT,0.00,WeatherDisplay:10.37,2013-01-20 09:29:00,
2013-01-20 04:30:00,58.8,58.0,30.15,North,349,1.1,0.0,97,0.00,CLR,SCT,0.00,WeatherDisplay:10.37,2013-01-20 09:30:00,
2013-01-20 04:33:00,58.7,57.9,30.14,NNW,340,1.1,1.1,97,0.00,CLR,SCT,0.00,WeatherDisplay:10.37,2013-01-20 09:33:00,
2013-01-20 04:34:00,58.7,57.9,30.14,North,11,1.1,1.1,97,0.00,CLR,SCT,0.00,WeatherDisplay:10.37,2013-01-20 09:34:00,
2013-01-20 04:35:00,58.7,57.9,30.14,NNE,18,3.5,3.5,97,0.00,CLR,SCT,0.00,WeatherDisplay:10.37,2013-01-20 09:35:00,
2013-01-20 04:36:00,58.7,57.9,30.14,NNE,18,1.1,0.0,97,0.00,CLR,SCT,0.00,WeatherDisplay:10.37,2013-01-20 09:36:00,
2013-01-20 04:39:00,58.7,57.9,30.14,NE,40,0.0,0.0,97,0.00,CLR,SCT,0.00,WeatherDisplay:10.37,2013-01-20 09:39:00,
2013-01-20 04:40:00,58.7,57.8,30.14,NNE,23,0.0,1.0,97,0.00,CLR,SCT,0.00,WeatherDisplay:10.37,2013-01-20 09:40:00,
2013-01-20 04:41:00,58.6,57.5,30.15,NW,321,0.0,0.0,96,0.00,CLR,SCT,0.00,WeatherDisplay:10.37,2013-01-20 09:41:00,
2013-01-20 04:44:00,58.6,57.8,30.15,NW,325,0.0,0.0,97,0.00,CLR,SCT,0.00,WeatherDisplay:10.37,2013-01-20 09:44:00,
2013-01-20 04:45:00,58.6,57.8,30.15,NW,325,0.0,0.0,97,0.00,CLR,SCT,0.00,WeatherDisplay:10.37,2013-01-20 09:45:00,
2013-01-20 04:46:00,58.6,57.8,30.15,NW,325,0.0,0.0,97,0.00,CLR,SCT,0.00,WeatherDisplay:10.37,2013-01-20 09:46:00,
2013-01-20 04:49:00,58.6,57.8,30.15,NNW,339,0.0,0.0,97,0.00,CLR,SCT,0.00,WeatherDisplay:10.37,2013-01-20 09:49:00,
2013-01-20 04:50:00,58.5,57.7,30.15,NNW,338,1.1,1.1,97,0.00,CLR,SCT,0.00,WeatherDisplay:10.37,2013-01-20 09:50:00,
2013-01-20 04:51:00,58.5,57.7,30.15,NNW,338,1.1,1.1,97,0.00,CLR,SCT,0.00,WeatherDisplay:10.37,2013-01-20 09:51:00,
2013-01-20 04:54:00,58.5,57.7,30.15,NE,39,0.0,0.0,97,0.00,CLR,SCT,0.00,WeatherDisplay:10.37,2013-01-20 09:54:00,
2013-01-20 04:56:00,58.5,57.7,30.15,NE,39,0.0,0.0,97,0.00,CLR,SCT,0.00,WeatherDisplay:10.37,2013-01-20 09:56:00,
2013-01-20 04:57:00,58.5,57.7,30.15,NE,38,0.0,0.0,97,0.00,CLR,SCT,0.00,WeatherDisplay:10.37,2013-01-20 09:57:00,
2013-01-20 04:59:00,58.5,57.7,30.15,NNE,20,0.0,0.0,97,0.00,CLR,SCT,0.00,WeatherDisplay:10.37,2013-01-20 09:59:00,
2013-01-20 05:01:00,58.5,57.7,30.15,NNE,20,0.0,0.0,97,0.00,CLR,SCT,0.00,WeatherDisplay:10.37,2013-01-20 10:01:00,
2013-01-20 05:02:00,58.5,57.7,30.15,North,359,1.1,1.1,97,0.00,CLR,SCT,0.00,WeatherDisplay:10.37,2013-01-20 10:02:00,
2013-01-20 05:04:00,58.5,57.7,30.15,North,4,0.0,0.0,97,0.00,CLR,SCT,0.00,WeatherDisplay:10.37,2013-01-20 10:04:00,
2013-01-20 05:06:00,58.5,57.7,30.15,North,4,0.0,0.0,97,0.00,CLR,SCT,0.00,WeatherDisplay:10.37,2013-01-20 10:06:00,
2013-01-20 05:07:00,58.5,57.7,30.15,North,4,0.0,0.1,97,0.00,CLR,SCT,0.00,WeatherDisplay:10.37,2013-01-20 10:07:00,
2013-01-20 05:09:00,58.5,57.7,30.15,North,4,0.0,0.0,97,0.00,CLR,SCT,0.00,WeatherDisplay:10.37,2013-01-20 10:09:00,
2013-01-20 05:11:00,58.5,57.7,30.15,NNW,345,1.1,0.0,97,0.00,CLR,SCT,0.00,WeatherDisplay:10.37,2013-01-20 10:11:00,
2013-01-20 05:12:00,58.5,57.7,30.15,NW,304,1.1,1.1,97,0.00,CLR,SCT,0.00,WeatherDisplay:10.37,2013-01-20 10:12:00,
2013-01-20 05:15:00,58.5,57.7,30.15,NNW,337,0.0,1.0,97,0.00,CLR,SCT,0.00,WeatherDisplay:10.37,2013-01-20 10:15:00,
2013-01-20 05:16:00,58.5,57.7,30.15,NW,304,0.0,0.0,97,0.00,CLR,SCT,0.00,WeatherDisplay:10.37,2013-01-20 10:16:00,
2013-01-20 05:17:00,58.5,57.7,30.15,NW,304,0.0,0.0,97,0.00,CLR,SCT,0.00,WeatherDisplay:10.37,2013-01-20 10:17:00,
2013-01-20 05:20:00,58.5,57.7,30.15,NNE,13,1.1,0.0,97,0.00,CLR,SCT,0.00,WeatherDisplay:10.37,2013-01-20 10:20:00,
2013-01-20 05:22:00,58.5,57.7,30.15,NNE,13,0.0,0.0,97,0.00,CLR,SCT,0.00,WeatherDisplay:10.37,2013-01-20 10:22:00,
2013-01-20 05:23:00,58.5,57.7,30.15,NNE,13,0.0,0.0,97,0.00,CLR,SCT,0.00,WeatherDisplay:10.37,2013-01-20 10:23:00,
2013-01-20 05:25:00,58.5,57.7,30.15,NNE,14,0.0,0.0,97,0.00,CLR,SCT,0.00,WeatherDisplay:10.37,2013-01-20 10:25:00,
2013-01-20 05:27:00,58.5,57.7,30.15,North,7,0.0,0.0,97,0.00,CLR,SCT,0.00,WeatherDisplay:10.37,2013-01-20 10:27:00,
2013-01-20 05:28:00,58.5,57.7,30.15,NNE,27,0.0,0.0,97,0.00,CLR,SCT,0.00,WeatherDisplay:10.37,2013-01-20 10:28:00,
2013-01-20 05:30:00,58.5,57.7,30.15,NE,50,1.0,0.0,97,0.00,CLR,SCT,0.00,WeatherDisplay:10.37,2013-01-20 10:30:00,
2013-01-20 05:32:00,58.5,57.7,30.15,NE,39,1.1,1.1,97,0.00,CLR,SCT,0.00,WeatherDisplay:10.37,2013-01-20 10:32:00,
2013-01-20 05:33:00,58.5,57.7,30.15,NNE,13,1.1,1.1,97,0.00,CLR,SCT,0.00,WeatherDisplay:10.37,2013-01-20 10:33:00,
2013-01-20 05:35:00,58.5,57.7,30.15,NNW,346,1.1,1.1,97,0.00,CLR,SCT,0.00,WeatherDisplay:10.37,2013-01-20 10:35:00,
2013-01-20 05:38:00,58.5,57.7,30.15,North,359,1.1,1.1,97,0.00,CLR,SCT,0.00,WeatherDisplay:10.37,2013-01-20 10:38:00,
2013-01-20 05:40:00,58.5,57.7,30.15,North,11,1.1,1.1,97,0.00,CLR,SCT,0.00,WeatherDisplay:10.37,2013-01-20 10:40:00,
2013-01-20 05:43:00,58.5,57.7,30.15,North,352,1.1,1.1,97,0.00,CLR,SCT,0.00,WeatherDisplay:10.37,2013-01-20 10:43:00,
2013-01-20 05:45:00,58.5,57.7,30.15,NNE,30,1.1,1.1,97,0.00,CLR,SCT,0.00,WeatherDisplay:10.37,2013-01-20 10:45:00,
2013-01-20 05:48:00,58.5,57.7,30.15,North,4,1.1,0.0,97,0.00,CLR,SCT,0.00,WeatherDisplay:10.37,2013-01-20 10:48:00,
2013-01-20 05:51:00,58.4,57.6,30.15,NNE,15,0.0,0.0,97,0.00,CLR,SCT,0.00,WeatherDisplay:10.37,2013-01-20 10:51:00,
2013-01-20 05:53:00,58.4,57.6,30.15,NE,42,0.0,0.0,97,0.00,CLR,SCT,0.00,WeatherDisplay:10.37,2013-01-20 10:53:00,
2013-01-20 05:56:00,58.4,57.6,30.15,NE,51,0.0,0.0,97,0.00,CLR,SCT,0.00,WeatherDisplay:10.37,2013-01-20 10:56:00,
2013-01-20 05:58:00,58.4,57.6,30.15,NE,51,0.0,0.0,97,0.00,CLR,SCT,0.00,WeatherDisplay:10.37,2013-01-20 10:58:00,
2013-01-20 06:01:00,58.4,57.6,30.15,NE,47,0.0,0.0,97,0.00,CLR,SCT,0.00,WeatherDisplay:10.37,2013-01-20 11:01:00,
2013-01-20 06:03:00,58.4,57.6,30.15,NE,47,0.0,0.0,97,0.00,CLR,SCT,0.00,WeatherDisplay:10.37,2013-01-20 11:03:00,
2013-01-20 06:04:00,58.4,57.6,30.15,NE,46,0.0,0.0,97,0.00,CLR,SCT,0.00,WeatherDisplay:10.37,2013-01-20 11:04:00,
2013-01-20 06:06:00,58.4,57.6,30.15,NE,46,0.0,0.1,97,0.00,CLR,SCT,0.00,WeatherDisplay:10.37,2013-01-20 11:06:00,
2013-01-20 06:09:00,58.3,57.5,30.15,NE,46,0.0,0.0,97,0.00,CLR,SCT,0.00,WeatherDisplay:10.37,2013-01-20 11:09:00,
2013-01-20 06:12:00,58.3,57.5,30.15,NE,48,2.3,2.3,97,0.00,CLR,SCT,0.00,WeatherDisplay:10.37,2013-01-20 11:12:00,
2013-01-20 06:14:00,58.3,57.5,30.15,NW,321,0.0,0.0,97,0.00,CLR,SCT,0.00,WeatherDisplay:10.37,2013-01-20 11:14:00,
2013-01-20 06:17:00,58.3,57.5,30.15,North,11,0.0,0.0,97,0.00,CLR,SCT,0.00,WeatherDisplay:10.37,2013-01-20 11:17:00,
2013-01-20 06:19:00,58.3,57.5,30.15,North,10,0.0,0.0,97,0.00,CLR,SCT,0.00,WeatherDisplay:10.37,2013-01-20 11:19:00,
2013-01-20 06:20:00,58.3,57.5,30.15,North,11,1.1,0.0,97,0.00,CLR,SCT,0.00,WeatherDisplay:10.37,2013-01-20 11:20:00,
2013-01-20 06:23:00,58.3,57.5,30.15,North,10,0.0,0.0,97,0.00,CLR,SCT,0.00,WeatherDisplay:10.37,2013-01-20 11:23:00,
2013-01-20 06:24:00,58.3,57.5,30.15,North,359,0.0,0.0,97,0.00,CLR,SCT,0.00,WeatherDisplay:10.37,2013-01-20 11:24:00,
2013-01-20 06:25:00,58.3,57.5,30.15,North,358,0.0,0.0,97,0.00,CLR,SCT,0.00,WeatherDisplay:10.37,2013-01-20 11:25:00,
2013-01-20 06:28:00,58.3,57.5,30.15,North,358,0.0,0.0,97,0.00,CLR,SCT,0.00,WeatherDisplay:10.37,2013-01-20 11:28:00,
2013-01-20 06:29:00,58.3,57.5,30.15,North,352,0.0,0.0,97,0.00,CLR,SCT,0.00,WeatherDisplay:10.37,2013-01-20 11:29:00,
2013-01-20 06:30:00,58.3,57.5,30.15,North,354,0.0,0.1,97,0.00,CLR,SCT,0.00,WeatherDisplay:10.37,2013-01-20 11:30:00,
2013-01-20 06:33:00,58.3,57.5,30.15,NE,36,0.0,0.0,97,0.00,CLR,SCT,0.00,WeatherDisplay:10.37,2013-01-20 11:33:00,
2013-01-20 06:34:00,58.3,57.5,30.16,NW,316,0.0,0.0,97,0.00,CLR,SCT,0.00,WeatherDisplay:10.37,2013-01-20 11:34:00,
2013-01-20 06:35:00,58.3,57.5,30.16,NW,316,0.0,0.0,97,0.00,CLR,SCT,0.00,WeatherDisplay:10.37,2013-01-20 11:35:00,
2013-01-20 06:38:00,58.3,57.5,30.16,NNW,330,1.1,1.1,97,0.00,CLR,SCT,0.00,WeatherDisplay:10.37,2013-01-20 11:38:00,
2013-01-20 06:39:00,58.3,57.5,30.16,North,359,0.0,0.1,97,0.00,CLR,SCT,0.00,WeatherDisplay:10.37,2013-01-20 11:39:00,
2013-01-20 06:40:00,58.3,57.5,30.16,North,359,1.1,1.1,97,0.00,CLR,SCT,0.00,WeatherDisplay:10.37,2013-01-20 11:40:00,
2013-01-20 06:43:00,58.3,57.5,30.16,NNE,32,0.0,0.0,97,0.00,CLR,SCT,0.00,WeatherDisplay:10.37,2013-01-20 11:43:00,
2013-01-20 06:44:00,58.3,57.5,30.17,NNW,339,0.0,0.0,97,0.00,CLR,SCT,0.00,WeatherDisplay:10.37,2013-01-20 11:44:00,
2013-01-20 06:45:00,58.3,57.5,30.16,North,353,0.0,0.0,97,0.00,CLR,SCT,0.00,WeatherDisplay:10.37,2013-01-20 11:45:00,
2013-01-20 06:48:00,58.4,57.6,30.17,North,5,2.3,2.3,97,0.00,CLR,SCT,0.00,WeatherDisplay:10.37,2013-01-20 11:48:00,
2013-01-20 06:50:00,58.4,57.6,30.17,North,5,0.0,0.0,97,0.00,CLR,SCT,0.00,WeatherDisplay:10.37,2013-01-20 11:50:00,
2013-01-20 06:53:00,58.4,57.6,30.17,NE,52,3.5,3.5,97,0.00,CLR,SCT,0.00,WeatherDisplay:10.37,2013-01-20 11:53:00,
2013-01-20 06:55:00,58.4,57.6,30.17,NE,36,1.1,0.0,97,0.00,CLR,SCT,0.00,WeatherDisplay:10.37,2013-01-20 11:55:00,
2013-01-20 06:56:00,58.4,57.6,30.17,NE,36,1.1,1.1,97,0.00,CLR,SCT,0.00,WeatherDisplay:10.37,2013-01-20 11:56:00,
2013-01-20 06:59:00,58.4,57.6,30.17,NNE,18,1.1,1.1,97,0.00,CLR,SCT,0.00,WeatherDisplay:10.37,2013-01-20 11:59:00,
2013-01-20 07:00:00,58.4,57.6,30.17,NNE,24,1.1,0.0,97,0.00,CLR,SCT,0.00,WeatherDisplay:10.37,2013-01-20 12:00:00,
2013-01-20 07:01:00,58.4,57.6,30.17,NNE,23,1.1,0.0,97,0.00,CLR,SCT,0.00,WeatherDisplay:10.37,2013-01-20 12:01:00,
2013-01-20 07:04:00,58.5,57.7,30.17,NNE,24,0.0,0.0,97,0.00,CLR,SCT,0.00,WeatherDisplay:10.37,2013-01-20 12:04:00,
2013-01-20 07:05:00,58.5,57.7,30.17,NNE,25,0.0,0.0,97,0.00,CLR,SCT,0.00,WeatherDisplay:10.37,2013-01-20 12:05:00,
2013-01-20 07:06:00,58.5,57.7,30.17,NNE,25,0.0,0.0,97,0.00,CLR,SCT,0.00,WeatherDisplay:10.37,2013-01-20 12:06:00,
2013-01-20 07:09:00,58.5,57.7,30.17,NE,39,1.1,1.1,97,0.00,CLR,SCT,0.00,WeatherDisplay:10.37,2013-01-20 12:09:00,
2013-01-20 07:11:00,58.5,57.7,30.17,NNE,25,1.1,1.1,97,0.00,CLR,SCT,0.00,WeatherDisplay:10.37,2013-01-20 12:11:00,
2013-01-20 07:14:00,58.6,57.8,30.17,NNE,13,1.1,0.0,97,0.00,CLR,SCT,0.00,WeatherDisplay:10.37,2013-01-20 12:14:00,
2013-01-20 07:16:00,58.6,57.8,30.17,NNE,33,0.0,0.0,97,0.00,CLR,SCT,0.00,WeatherDisplay:10.37,2013-01-20 12:16:00,
2013-01-20 07:17:00,58.6,57.8,30.17,NNE,32,0.0,0.0,97,0.00,CLR,SCT,0.00,WeatherDisplay:10.37,2013-01-20 12:17:00,
2013-01-20 07:19:00,58.7,57.9,30.17,NNE,32,0.0,0.0,97,0.00,CLR,SCT,0.00,WeatherDisplay:10.37,2013-01-20 12:19:00,
2013-01-20 07:21:00,58.6,57.8,30.17,North,6,0.0,0.0,97,0.00,CLR,SCT,0.00,WeatherDisplay:10.37,2013-01-20 12:21:00,
2013-01-20 07:22:00,58.6,57.8,30.17,North,6,1.1,0.0,97,0.00,CLR,SCT,0.00,WeatherDisplay:10.37,2013-01-20 12:22:00,
2013-01-20 07:24:00,58.7,57.9,30.17,North,352,1.1,1.1,97,0.00,CLR,SCT,0.00,WeatherDisplay:10.37,2013-01-20 12:24:00,
2013-01-20 07:26:00,58.7,57.9,30.17,NNE,27,1.0,1.0,97,0.00,CLR,SCT,0.00,WeatherDisplay:10.37,2013-01-20 12:26:00,
2013-01-20 07:27:00,58.7,57.9,30.17,NNE,27,1.1,1.1,97,0.00,CLR,SCT,0.00,WeatherDisplay:10.37,2013-01-20 12:27:00,
2013-01-20 07:30:00,58.7,57.9,30.18,NNE,27,0.0,0.0,97,0.00,CLR,SCT,0.00,WeatherDisplay:10.37,2013-01-20 12:30:00,
2013-01-20 07:32:00,58.7,57.9,30.18,NNE,30,1.0,1.0,97,0.00,CLR,SCT,0.00,WeatherDisplay:10.37,2013-01-20 12:32:00,
2013-01-20 07:35:00,58.7,57.9,30.18,NNE,30,0.0,0.0,97,0.00,CLR,SCT,0.00,WeatherDisplay:10.37,2013-01-20 12:35:00,
2013-01-20 07:37:00,58.7,57.9,30.18,North,354,1.1,1.1,97,0.00,CLR,SCT,0.00,WeatherDisplay:10.37,2013-01-20 12:37:00,
2013-01-20 07:38:00,58.7,57.9,30.18,North,352,1.1,0.0,97,0.00,CLR,SCT,0.00,WeatherDisplay:10.37,2013-01-20 12:38:00,
2013-01-20 07:40:00,58.7,57.9,30.17,NNE,33,1.1,1.1,97,0.00,CLR,SCT,0.00,WeatherDisplay:10.37,2013-01-20 12:40:00,
2013-01-20 07:42:00,58.7,57.9,30.17,NNE,23,1.1,0.0,97,0.00,CLR,SCT,0.00,WeatherDisplay:10.37,2013-01-20 12:42:00,
2013-01-20 07:43:00,58.6,57.8,30.17,NNE,25,1.1,1.1,97,0.00,CLR,SCT,0.00,WeatherDisplay:10.37,2013-01-20 12:43:00,
2013-01-20 07:45:00,58.6,57.8,30.17,North,358,0.0,0.1,97,0.00,CLR,SCT,0.00,WeatherDisplay:10.37,2013-01-20 12:45:00,
2013-01-20 07:47:00,58.6,57.8,30.17,NE,41,1.1,1.1,97,0.00,CLR,SCT,0.00,WeatherDisplay:10.37,2013-01-20 12:47:00,
2013-01-20 07:48:00,58.6,57.8,30.17,NE,38,0.0,0.0,97,0.00,CLR,SCT,0.00,WeatherDisplay:10.37,2013-01-20 12:48:00,
2013-01-20 07:50:00,58.6,57.8,30.18,NNE,32,1.1,0.0,97,0.00,CLR,SCT,0.00,WeatherDisplay:10.37,2013-01-20 12:50:00,
2013-01-20 07:53:00,58.6,57.8,30.18,NNE,28,1.0,0.0,97,0.00,CLR,SCT,0.00,WeatherDisplay:10.37,2013-01-20 12:53:00,
2013-01-20 07:56:00,58.6,57.8,30.18,NNE,19,1.1,1.1,97,0.00,CLR,SCT,0.00,WeatherDisplay:10.37,2013-01-20 12:56:00,
2013-01-20 07:58:00,58.6,57.8,30.18,NNW,347,1.1,1.1,97,0.00,CLR,SCT,0.00,WeatherDisplay:10.37,2013-01-20 12:58:00,
2013-01-20 08:02:00,58.6,57.5,30.18,North,11,1.1,1.1,96,0.00,CLR,SCT,0.00,WeatherDisplay:10.37,2013-01-20 13:02:00,
2013-01-20 08:03:00,58.6,57.5,30.18,North,356,2.3,2.3,96,0.00,CLR,SCT,0.00,WeatherDisplay:10.37,2013-01-20 13:03:00,
2013-01-20 08:07:00,58.6,57.5,30.18,NNE,15,1.1,1.1,96,0.00,CLR,SCT,0.00,WeatherDisplay:10.37,2013-01-20 13:07:00,
2013-01-20 08:08:00,58.6,57.5,30.18,NNE,14,0.0,0.0,96,0.00,CLR,SCT,0.00,WeatherDisplay:10.37,2013-01-20 13:08:00,
2013-01-20 08:09:00,58.6,57.5,30.18,North,353,3.5,3.5,96,0.00,CLR,SCT,0.00,WeatherDisplay:10.37,2013-01-20 13:09:00,
2013-01-20 08:12:00,58.7,57.6,30.18,NNE,18,0.0,0.0,96,0.00,CLR,SCT,0.00,WeatherDisplay:10.37,2013-01-20 13:12:00,
2013-01-20 08:13:00,58.7,57.6,30.18,NNE,16,0.0,0.0,96,0.00,CLR,SCT,0.00,WeatherDisplay:10.37,2013-01-20 13:13:00,
2013-01-20 08:14:00,58.7,57.6,30.18,NNE,19,1.1,0.0,96,0.00,CLR,SCT,0.00,WeatherDisplay:10.37,2013-01-20 13:14:00,
2013-01-20 08:17:00,58.7,57.6,30.18,NNE,14,1.1,0.0,96,0.00,CLR,SCT,0.00,WeatherDisplay:10.37,2013-01-20 13:17:00,
2013-01-20 08:18:00,58.7,57.6,30.18,NNE,18,1.0,1.0,96,0.00,CLR,SCT,0.00,WeatherDisplay:10.37,2013-01-20 13:18:00,
2013-01-20 08:19:00,58.8,57.7,30.18,North,354,1.1,1.1,96,0.00,CLR,SCT,0.00,WeatherDisplay:10.37,2013-01-20 13:19:00,
2013-01-20 08:23:00,58.8,57.7,30.18,North,4,0.0,0.0,96,0.00,CLR,SCT,0.00,WeatherDisplay:10.37,2013-01-20 13:23:00,
2013-01-20 08:24:00,58.8,57.7,30.18,North,356,2.3,2.3,96,0.00,CLR,SCT,0.00,WeatherDisplay:10.37,2013-01-20 13:24:00,
2013-01-20 08:25:00,58.8,57.7,30.18,North,358,1.1,1.1,96,0.00,CLR,SCT,0.00,WeatherDisplay:10.37,2013-01-20 13:25:00,
2013-01-20 08:28:00,58.8,57.7,30.18,NNE,14,1.1,1.1,96,0.00,CLR,SCT,0.00,WeatherDisplay:10.37,2013-01-20 13:28:00,
2013-01-20 08:29:00,58.8,57.7,30.18,NNW,342,1.1,1.1,96,0.00,CLR,SCT,0.00,WeatherDisplay:10.37,2013-01-20 13:29:00,
2013-01-20 08:30:00,58.8,57.7,30.18,North,358,0.0,1.0,96,0.00,CLR,SCT,0.00,WeatherDisplay:10.37,2013-01-20 13:30:00,
2013-01-20 08:33:00,58.8,57.7,30.18,ENE,60,1.1,1.1,96,0.00,CLR,SCT,0.00,WeatherDisplay:10.37,2013-01-20 13:33:00,
2013-01-20 08:34:00,58.9,57.8,30.18,NNE,22,1.1,1.1,96,0.00,CLR,SCT,0.00,WeatherDisplay:10.37,2013-01-20 13:34:00,
2013-01-20 08:35:00,58.8,57.7,30.18,North,360,0.0,2.0,96,0.00,CLR,SCT,0.00,WeatherDisplay:10.37,2013-01-20 13:35:00,
2013-01-20 08:38:00,58.8,57.7,30.19,ENE,58,1.1,1.1,96,0.00,CLR,SCT,0.00,WeatherDisplay:10.37,2013-01-20 13:38:00,
2013-01-20 08:39:00,58.9,57.8,30.19,NNW,341,2.3,2.3,96,0.00,CLR,SCT,0.00,WeatherDisplay:10.37,2013-01-20 13:39:00,
2013-01-20 08:40:00,58.9,57.8,30.19,North,5,0.0,2.0,96,0.00,CLR,SCT,0.00,WeatherDisplay:10.37,2013-01-20 13:40:00,
2013-01-20 08:43:00,58.9,57.8,30.19,North,354,1.1,1.1,96,0.00,CLR,SCT,0.00,WeatherDisplay:10.37,2013-01-20 13:43:00,
2013-01-20 08:44:00,58.9,57.8,30.19,North,358,1.1,1.1,96,0.00,CLR,SCT,0.00,WeatherDisplay:10.37,2013-01-20 13:44:00,
2013-01-20 08:45:00,58.9,57.8,30.19,NNW,344,0.0,0.0,96,0.00,CLR,SCT,0.00,WeatherDisplay:10.37,2013-01-20 13:45:00,
2013-01-20 08:48:00,59.1,58.0,30.19,NNW,345,0.0,0.0,96,0.00,CLR,SCT,0.00,WeatherDisplay:10.37,2013-01-20 13:48:00,
2013-01-20 08:49:00,59.2,58.1,30.19,NW,308,1.1,1.1,96,0.00,CLR,SCT,0.00,WeatherDisplay:10.37,2013-01-20 13:49:00,
2013-01-20 08:50:00,59.2,58.1,30.19,North,5,1.1,1.1,96,0.00,CLR,SCT,0.00,WeatherDisplay:10.37,2013-01-20 13:50:00,
2013-01-20 08:53:00,59.4,58.3,30.19,North,352,1.1,1.1,96,0.00,CLR,SCT,0.00,WeatherDisplay:10.37,2013-01-20 13:53:00,
2013-01-20 08:54:00,59.5,58.4,30.19,North,352,0.0,0.0,96,0.00,CLR,SCT,0.00,WeatherDisplay:10.37,2013-01-20 13:54:00,
2013-01-20 08:55:00,59.5,58.4,30.19,North,10,1.1,1.1,96,0.00,CLR,SCT,0.00,WeatherDisplay:10.37,2013-01-20 13:55:00,
2013-01-20 08:59:00,59.7,58.6,30.19,North,352,1.1,1.1,96,0.00,CLR,SCT,0.00,WeatherDisplay:10.37,2013-01-20 13:59:00,
2013-01-20 09:00:00,59.8,58.7,30.19,North,358,2.3,2.3,96,0.00,CLR,SCT,0.00,WeatherDisplay:10.37,2013-01-20 14:00:00,
2013-01-20 09:04:00,59.8,58.7,30.20,NNW,327,2.3,2.3,96,0.00,CLR,SCT,0.00,WeatherDisplay:10.37,2013-01-20 14:04:00,
2013-01-20 09:05:00,59.8,58.7,30.20,NNE,30,2.3,2.3,96,0.00,CLR,SCT,0.00,WeatherDisplay:10.37,2013-01-20 14:05:00,
2013-01-20 09:06:00,59.8,58.7,30.20,North,356,2.3,2.3,96,0.00,CLR,SCT,0.00,WeatherDisplay:10.37,2013-01-20 14:06:00,
2013-01-20 09:09:00,59.9,58.8,30.20,North,6,0.0,0.0,96,0.00,CLR,SCT,0.00,WeatherDisplay:10.37,2013-01-20 14:09:00,
2013-01-20 09:10:00,60.0,58.9,30.20,North,6,0.0,0.0,96,0.00,CLR,SCT,0.00,WeatherDisplay:10.37,2013-01-20 14:10:00,
2013-01-20 09:11:00,60.0,58.9,30.20,North,5,0.0,0.0,96,0.00,CLR,SCT,0.00,WeatherDisplay:10.37,2013-01-20 14:11:00,
2013-01-20 09:14:00,60.0,58.6,30.20,NE,39,2.3,2.3,95,0.00,CLR,SCT,0.00,WeatherDisplay:10.37,2013-01-20 14:14:00,
2013-01-20 09:15:00,60.0,58.6,30.20,NE,41,2.3,2.3,95,0.00,CLR,SCT,0.00,WeatherDisplay:10.37,2013-01-20 14:15:00,
2013-01-20 09:16:00,59.9,58.5,30.20,NE,41,0.0,0.0,95,0.00,CLR,SCT,0.00,WeatherDisplay:10.37,2013-01-20 14:16:00,
2013-01-20 09:19:00,59.9,58.5,30.20,ENE,65,1.1,0.0,95,0.00,CLR,SCT,0.00,WeatherDisplay:10.37,2013-01-20 14:19:00,
2013-01-20 09:20:00,60.0,58.6,30.20,NNE,16,1.1,0.0,95,0.00,CLR,SCT,0.00,WeatherDisplay:10.37,2013-01-20 14:20:00,
2013-01-20 09:21:00,60.0,58.6,30.20,NNE,16,0.0,0.0,95,0.00,CLR,SCT,0.00,WeatherDisplay:10.37,2013-01-20 14:21:00,
2013-01-20 09:24:00,60.0,58.6,30.20,NNE,14,0.0,0.0,95,0.00,CLR,SCT,0.00,WeatherDisplay:10.37,2013-01-20 14:24:00,
2013-01-20 09:25:00,60.1,58.7,30.20,North,4,1.1,0.0,95,0.00,CLR,SCT,0.00,WeatherDisplay:10.37,2013-01-20 14:25:00,
2013-01-20 09:26:00,60.1,58.7,30.20,NNE,27,0.0,0.0,95,0.00,CLR,SCT,0.00,WeatherDisplay:10.37,2013-01-20 14:26:00,
2013-01-20 09:29:00,60.1,58.7,30.20,NNW,333,1.1,1.1,95,0.00,CLR,SCT,0.00,WeatherDisplay:10.37,2013-01-20 14:29:00,
2013-01-20 09:30:00,60.1,58.7,30.20,North,352,1.1,0.0,95,0.00,CLR,SCT,0.00,WeatherDisplay:10.37,2013-01-20 14:30:00,
2013-01-20 09:31:00,60.1,58.7,30.20,NNE,18,1.1,1.1,95,0.00,CLR,SCT,0.00,WeatherDisplay:10.37,2013-01-20 14:31:00,
2013-01-20 09:34:00,60.1,58.7,30.20,NNE,18,1.1,0.0,95,0.00,CLR,SCT,0.00,WeatherDisplay:10.37,2013-01-20 14:34:00,
2013-01-20 09:36:00,60.1,58.7,30.20,NNE,18,1.1,1.1,95,0.00,CLR,SCT,0.00,WeatherDisplay:10.37,2013-01-20 14:36:00,
2013-01-20 09:39:00,60.1,58.7,30.20,NNE,27,1.1,1.1,95,0.00,CLR,SCT,0.00,WeatherDisplay:10.37,2013-01-20 14:39:00,
2013-01-20 09:41:00,60.1,58.7,30.20,ENE,59,1.1,1.1,95,0.00,CLR,SCT,0.00,WeatherDisplay:10.37,2013-01-20 14:41:00,
2013-01-20 09:45:00,60.2,58.8,30.20,NNE,13,0.0,2.0,95,0.00,CLR,SCT,0.00,WeatherDisplay:10.37,2013-01-20 14:45:00,
2013-01-20 09:47:00,60.3,58.9,30.20,NNE,15,1.1,1.1,95,0.00,CLR,SCT,0.00,WeatherDisplay:10.37,2013-01-20 14:47:00,
2013-01-20 09:50:00,60.5,59.1,30.20,NNW,343,2.3,2.3,95,0.00,CLR,SCT,0.00,WeatherDisplay:10.37,2013-01-20 14:50:00,
2013-01-20 09:52:00,60.7,59.3,30.20,NNE,18,1.1,1.1,95,0.00,CLR,SCT,0.00,WeatherDisplay:10.37,2013-01-20 14:52:00,
2013-01-20 09:55:00,61.1,59.7,30.20,NNE,19,0.0,0.0,95,0.00,CLR,SCT,0.00,WeatherDisplay:10.37,2013-01-20 14:55:00,
2013-01-20 09:57:00,61.2,59.5,30.20,NNW,340,0.0,0.0,94,0.00,CLR,SCT,0.00,WeatherDisplay:10.37,2013-01-20 14:57:00,
2013-01-20 10:01:00,61.4,59.7,30.20,NW,312,1.1,1.1,94,0.00,CLR,SCT,0.00,WeatherDisplay:10.37,2013-01-20 15:01:00,
2013-01-20 10:02:00,61.4,59.7,30.20,NNW,335,1.1,1.1,94,0.00,CLR,SCT,0.00,WeatherDisplay:10.37,2013-01-20 15:02:00,
2013-01-20 10:06:00,61.6,59.6,30.19,North,356,1.1,1.1,93,0.00,CLR,SCT,0.00,WeatherDisplay:10.37,2013-01-20 15:06:00,
2013-01-20 10:07:00,61.6,59.6,30.19,North,356,2.3,2.3,93,0.00,CLR,SCT,0.00,WeatherDisplay:10.37,2013-01-20 15:07:00,
2013-01-20 10:11:00,62.0,60.0,30.20,NNW,333,1.1,1.1,93,0.00,CLR,SCT,0.00,WeatherDisplay:10.37,2013-01-20 15:11:00,
2013-01-20 10:12:00,62.1,60.1,30.20,NNW,333,2.3,2.3,93,0.00,CLR,SCT,0.00,WeatherDisplay:10.37,2013-01-20 15:12:00,
2013-01-20 10:13:00,62.1,60.1,30.20,NNW,333,0.0,0.0,93,0.00,CLR,SCT,0.00,WeatherDisplay:10.37,2013-01-20 15:13:00,
2013-01-20 10:17:00,62.4,60.0,30.20,NNW,348,1.1,1.1,92,0.00,CLR,SCT,0.00,WeatherDisplay:10.37,2013-01-20 15:17:00,
2013-01-20 10:18:00,62.5,60.1,30.20,NNE,12,0.0,0.0,92,0.00,CLR,SCT,0.00,WeatherDisplay:10.37,2013-01-20 15:18:00,
2013-01-20 10:22:00,62.6,60.2,30.20,NNE,20,1.1,0.0,92,0.00,CLR,SCT,0.00,WeatherDisplay:10.37,2013-01-20 15:22:00,
2013-01-20 10:23:00,62.7,60.0,30.20,NNE,30,1.1,1.1,91,0.00,CLR,SCT,0.00,WeatherDisplay:10.37,2013-01-20 15:23:00,
2013-01-20 10:27:00,62.9,60.2,30.20,North,6,1.1,1.1,91,0.00,CLR,SCT,0.00,WeatherDisplay:10.37,2013-01-20 15:27:00,
2013-01-20 10:28:00,62.9,60.2,30.20,NNE,20,1.1,1.1,91,0.00,CLR,SCT,0.00,WeatherDisplay:10.37,2013-01-20 15:28:00,
2013-01-20 10:32:00,63.0,60.3,30.20,North,11,1.1,1.1,91,0.00,CLR,SCT,0.00,WeatherDisplay:10.37,2013-01-20 15:32:00,
2013-01-20 10:33:00,63.1,60.4,30.20,NNW,338,1.1,1.1,91,0.00,CLR,SCT,0.00,WeatherDisplay:10.37,2013-01-20 15:33:00,
2013-01-20 10:37:00,63.3,60.6,30.19,North,5,1.1,0.0,91,0.00,CLR,SCT,0.00,WeatherDisplay:10.37,2013-01-20 15:37:00,
2013-01-20 10:38:00,63.5,60.5,30.19,North,8,1.1,0.0,90,0.00,CLR,SCT,0.00,WeatherDisplay:10.37,2013-01-20 15:38:00,
2013-01-20 10:42:00,63.9,60.9,30.19,North,5,2.3,2.3,90,0.00,CLR,SCT,0.00,WeatherDisplay:10.37,2013-01-20 15:42:00,
2013-01-20 10:43:00,64.0,61.0,30.19,NW,308,1.1,1.1,90,0.00,CLR,SCT,0.00,WeatherDisplay:10.37,2013-01-20 15:43:00,
2013-01-20 10:47:00,64.6,61.3,30.19,NNE,20,1.1,1.1,89,0.00,CLR,SCT,0.00,WeatherDisplay:10.37,2013-01-20 15:47:00,
2013-01-20 10:48:00,64.7,61.4,30.19,NNE,20,1.1,0.0,89,0.00,CLR,SCT,0.00,WeatherDisplay:10.37,2013-01-20 15:48:00,
2013-01-20 10:53:00,65.2,61.2,30.18,NE,39,1.1,1.1,87,0.00,CLR,SCT,0.00,WeatherDisplay:10.37,2013-01-20 15:53:00,
2013-01-20 10:54:00,65.5,61.5,30.18,NNE,27,2.3,2.3,87,0.00,CLR,SCT,0.00,WeatherDisplay:10.37,2013-01-20 15:54:00,
2013-01-20 10:58:00,66.3,62.0,30.18,North,6,0.0,0.0,86,0.00,CLR,SCT,0.00,WeatherDisplay:10.37,2013-01-20 15:58:00,
2013-01-20 10:59:00,66.5,62.2,30.18,North,7,0.0,0.0,86,0.00,CLR,SCT,0.00,WeatherDisplay:10.37,2013-01-20 15:59:00,
2013-01-20 11:00:00,66.6,61.9,30.18,North,8,0.0,0.0,85,0.00,CLR,SCT,0.00,WeatherDisplay:10.37,2013-01-20 16:00:00,
2013-01-20 11:03:00,67.1,62.1,30.19,NE,39,1.1,1.1,84,0.00,CLR,SCT,0.00,WeatherDisplay:10.37,2013-01-20 16:03:00,
2013-01-20 11:04:00,67.2,62.2,30.19,NE,39,1.1,1.1,84,0.00,CLR,SCT,0.00,WeatherDisplay:10.37,2013-01-20 16:04:00,
2013-01-20 11:05:00,67.3,62.0,30.19,NNE,32,2.3,2.3,83,0.00,CLR,SCT,0.00,WeatherDisplay:10.37,2013-01-20 16:05:00,
2013-01-20 11:08:00,67.5,62.2,30.19,ENE,63,3.0,3.0,83,0.00,CLR,SCT,0.00,WeatherDisplay:10.37,2013-01-20 16:08:00,
2013-01-20 11:09:00,67.5,62.2,30.19,ENE,58,3.5,3.5,83,0.00,CLR,SCT,0.00,WeatherDisplay:10.37,2013-01-20 16:09:00,
2013-01-20 11:10:00,67.5,62.2,30.19,NNE,18,1.1,1.1,83,0.00,CLR,SCT,0.00,WeatherDisplay:10.37,2013-01-20 16:10:00,
2013-01-20 11:13:00,67.6,61.9,30.19,NNE,18,3.5,3.5,82,0.00,CLR,SCT,0.00,WeatherDisplay:10.37,2013-01-20 16:13:00,
2013-01-20 11:14:00,67.6,61.9,30.19,NE,51,3.5,3.5,82,0.00,CLR,SCT,0.00,WeatherDisplay:10.37,2013-01-20 16:14:00,
2013-01-20 11:15:00,67.6,61.9,30.19,NE,41,0.0,4.0,82,0.00,CLR,SCT,0.00,WeatherDisplay:10.37,2013-01-20 16:15:00,
2013-01-20 11:18:00,67.5,61.8,30.18,NNE,30,3.5,3.5,82,0.00,CLR,SCT,0.00,WeatherDisplay:10.37,2013-01-20 16:18:00,
2013-01-20 11:19:00,67.6,61.9,30.18,NNW,347,3.5,0.0,82,0.00,CLR,SCT,0.00,WeatherDisplay:10.37,2013-01-20 16:19:00,
2013-01-20 11:20:00,67.6,61.9,30.18,NW,314,0.0,0.0,82,0.00,CLR,SCT,0.00,WeatherDisplay:10.37,2013-01-20 16:20:00,
2013-01-20 11:23:00,67.8,62.1,30.18,North,1,2.3,2.3,82,0.00,CLR,SCT,0.00,WeatherDisplay:10.37,2013-01-20 16:23:00,
2013-01-20 11:24:00,67.9,62.2,30.18,NNE,19,2.3,2.3,82,0.00,CLR,SCT,0.00,WeatherDisplay:10.37,2013-01-20 16:24:00,
2013-01-20 11:25:00,67.9,61.9,30.18,NNE,30,2.3,2.3,81,0.00,CLR,SCT,0.00,WeatherDisplay:10.37,2013-01-20 16:25:00,
2013-01-20 11:26:00,67.9,61.9,30.18,NNE,14,2.3,2.3,81,0.00,CLR,SCT,0.00,WeatherDisplay:10.37,2013-01-20 16:26:00,
2013-01-20 11:28:00,68.0,61.9,30.18,NE,36,2.3,2.3,81,0.00,CLR,SCT,0.00,WeatherDisplay:10.37,2013-01-20 16:28:00,
2013-01-20 11:29:00,68.1,62.4,30.18,NE,36,2.3,2.3,82,0.00,CLR,SCT,0.00,WeatherDisplay:10.37,2013-01-20 16:29:00,
2013-01-20 11:30:00,68.1,62.4,30.18,NNE,22,1.1,1.1,82,0.00,CLR,SCT,0.00,WeatherDisplay:10.37,2013-01-20 16:30:00,
2013-01-20 11:31:00,68.2,62.5,30.18,North,356,1.1,1.1,82,0.00,CLR,SCT,0.00,WeatherDisplay:10.37,2013-01-20 16:31:00,
2013-01-20 11:33:00,68.6,62.5,30.18,North,356,1.1,1.1,81,0.00,CLR,SCT,0.00,WeatherDisplay:10.37,2013-01-20 16:33:00,
2013-01-20 11:35:00,68.8,62.7,30.18,NNE,15,0.0,2.0,81,0.00,CLR,SCT,0.00,WeatherDisplay:10.37,2013-01-20 16:35:00,
2013-01-20 11:36:00,69.0,62.6,30.17,NNE,22,2.3,2.3,80,0.00,CLR,SCT,0.00,WeatherDisplay:10.37,2013-01-20 16:36:00,
2013-01-20 11:38:00,69.2,62.8,30.17,North,356,2.3,2.3,80,0.00,CLR,SCT,0.00,WeatherDisplay:10.37,2013-01-20 16:38:00,
2013-01-20 11:40:00,69.2,62.8,30.17,North,3,0.0,2.0,80,0.00,CLR,SCT,0.00,WeatherDisplay:10.37,2013-01-20 16:40:00,
2013-01-20 11:41:00,69.6,63.2,30.17,East,86,1.0,1.0,80,0.00,CLR,SCT,0.00,WeatherDisplay:10.37,2013-01-20 16:41:00,
2013-01-20 11:44:00,70.0,63.2,30.17,NNE,19,3.5,3.5,79,0.00,CLR,SCT,0.00,WeatherDisplay:10.37,2013-01-20 16:44:00,
2013-01-20 11:45:00,70.0,63.2,30.17,NNE,13,0.0,3.0,79,0.00,CLR,SCT,0.00,WeatherDisplay:10.37,2013-01-20 16:45:00,
2013-01-20 11:47:00,70.2,63.0,30.17,NNE,13,3.5,3.5,78,0.00,CLR,SCT,0.00,WeatherDisplay:10.37,2013-01-20 16:47:00,
2013-01-20 11:49:00,70.2,63.0,30.17,ENE,57,2.0,2.0,78,0.00,CLR,SCT,0.00,WeatherDisplay:10.37,2013-01-20 16:49:00,
2013-01-20 11:50:00,70.2,63.0,30.17,NNE,22,0.0,3.0,78,0.00,CLR,SCT,0.00,WeatherDisplay:10.37,2013-01-20 16:50:00,
2013-01-20 11:52:00,70.2,62.6,30.17,North,5,1.1,1.1,77,0.00,CLR,SCT,0.00,WeatherDisplay:10.37,2013-01-20 16:52:00,
2013-01-20 11:54:00,70.0,62.5,30.17,NW,319,2.0,2.0,77,0.00,CLR,SCT,0.00,WeatherDisplay:10.37,2013-01-20 16:54:00,
2013-01-20 11:55:00,70.0,62.4,30.17,NNE,14,1.0,4.0,77,0.00,CLR,SCT,0.00,WeatherDisplay:10.37,2013-01-20 16:55:00,
2013-01-20 11:57:00,69.6,62.1,30.17,North,4,1.1,1.1,77,0.00,CLR,SCT,0.00,WeatherDisplay:10.37,2013-01-20 16:57:00,
2013-01-20 11:59:00,69.4,61.9,30.17,NNE,16,2.3,2.3,77,0.00,CLR,SCT,0.00,WeatherDisplay:10.37,2013-01-20 16:59:00,
2013-01-20 12:00:00,69.4,62.2,30.17,NNE,16,1.1,1.1,78,0.00,CLR,SCT,0.00,WeatherDisplay:10.37,2013-01-20 17:00:00,
2013-01-20 12:01:00,69.3,62.1,30.17,NNE,12,2.3,2.3,78,0.00,CLR,SCT,0.00,WeatherDisplay:10.37,2013-01-20 17:01:00,
2013-01-20 12:02:00,69.3,62.1,30.16,North,1,1.1,0.0,78,0.00,CLR,SCT,0.00,WeatherDisplay:10.37,2013-01-20 17:02:00,
2013-01-20 12:05:00,69.3,62.1,30.16,North,1,2.3,0.0,78,0.00,CLR,SCT,0.00,WeatherDisplay:10.37,2013-01-20 17:05:00,
2013-01-20 12:06:00,69.4,62.2,30.16,NNW,344,1.1,1.1,78,0.00,CLR,SCT,0.00,WeatherDisplay:10.37,2013-01-20 17:06:00,
2013-01-20 12:08:00,69.5,62.3,30.16,NNE,18,1.1,1.1,78,0.00,CLR,SCT,0.00,WeatherDisplay:10.37,2013-01-20 17:08:00,
2013-01-20 12:10:00,69.6,62.1,30.16,North,355,2.3,2.3,77,0.00,CLR,SCT,0.00,WeatherDisplay:10.37,2013-01-20 17:10:00,
2013-01-20 12:11:00,69.7,62.2,30.16,North,6,2.3,0.0,77,0.00,CLR,SCT,0.00,WeatherDisplay:10.37,2013-01-20 17:11:00,
2013-01-20 12:13:00,69.8,62.3,30.16,North,5,2.3,2.3,77,0.00,CLR,SCT,0.00,WeatherDisplay:10.37,2013-01-20 17:13:00,
2013-01-20 12:15:00,69.9,62.3,30.16,NNE,14,0.0,2.0,77,0.00,CLR,SCT,0.00,WeatherDisplay:10.37,2013-01-20 17:15:00,
2013-01-20 12:16:00,69.9,62.0,30.16,NNE,15,0.0,0.0,76,0.00,CLR,SCT,0.00,WeatherDisplay:10.37,2013-01-20 17:16:00,
2013-01-20 12:18:00,70.1,62.2,30.15,ENE,58,3.5,3.5,76,0.00,CLR,SCT,0.00,WeatherDisplay:10.37,2013-01-20 17:18:00,
2013-01-20 12:20:00,70.1,62.2,30.15,North,9,1.1,1.1,76,0.00,CLR,SCT,0.00,WeatherDisplay:10.37,2013-01-20 17:20:00,
2013-01-20 12:21:00,70.1,62.2,30.15,NNE,32,3.5,3.5,76,0.00,CLR,SCT,0.00,WeatherDisplay:10.37,2013-01-20 17:21:00,
2013-01-20 12:23:00,70.2,62.3,30.15,NNW,347,2.3,2.3,76,0.00,CLR,SCT,0.00,WeatherDisplay:10.37,2013-01-20 17:23:00,
2013-01-20 12:25:00,70.3,62.4,30.15,NW,316,4.6,4.6,76,0.00,CLR,SCT,0.00,WeatherDisplay:10.37,2013-01-20 17:25:00,
2013-01-20 12:26:00,70.5,62.6,30.14,NE,39,3.0,3.0,76,0.00,CLR,SCT,0.00,WeatherDisplay:10.37,2013-01-20 17:26:00,
2013-01-20 12:28:00,70.7,62.4,30.14,NNE,25,1.1,1.1,75,0.00,CLR,SCT,0.00,WeatherDisplay:10.37,2013-01-20 17:28:00,
2013-01-20 12:30:00,70.9,62.6,30.14,NNW,340,1.1,1.1,75,0.00,CLR,SCT,0.00,WeatherDisplay:10.37,2013-01-20 17:30:00,
2013-01-20 12:31:00,71.0,62.3,30.14,NNW,336,2.3,2.3,74,0.00,CLR,SCT,0.00,WeatherDisplay:10.37,2013-01-20 17:31:00,
2013-01-20 12:33:00,71.2,62.5,30.14,ENE,61,2.3,2.3,74,0.00,CLR,SCT,0.00,WeatherDisplay:10.37,2013-01-20 17:33:00,
2013-01-20 12:36:00,71.2,62.5,30.14,ENE,58,4.6,4.6,74,0.00,CLR,SCT,0.00,WeatherDisplay:10.37,2013-01-20 17:36:00,
2013-01-20 12:39:00,71.3,62.6,30.13,ENE,71,4.6,4.6,74,0.00,CLR,SCT,0.00,WeatherDisplay:10.37,2013-01-20 17:39:00,
2013-01-20 12:41:00,71.5,62.4,30.13,NNW,342,3.5,3.5,73,0.00,CLR,SCT,0.00,WeatherDisplay:10.37,2013-01-20 17:41:00,
2013-01-20 12:42:00,71.6,62.5,30.13,NE,56,5.0,5.0,73,0.00,CLR,SCT,0.00,WeatherDisplay:10.37,2013-01-20 17:42:00,
2013-01-20 12:44:00,71.8,62.7,30.13,NNE,30,3.5,3.5,73,0.00,CLR,SCT,0.00,WeatherDisplay:10.37,2013-01-20 17:44:00,
2013-01-20 12:46:00,72.2,63.1,30.13,NE,36,1.1,1.1,73,0.00,CLR,SCT,0.00,WeatherDisplay:10.37,2013-01-20 17:46:00,
2013-01-20 12:47:00,72.4,62.9,30.13,NE,37,4.6,4.6,72,0.00,CLR,SCT,0.00,WeatherDisplay:10.37,2013-01-20 17:47:00,
2013-01-20 12:50:00,72.9,63.3,30.13,NNE,14,1.1,1.1,72,0.00,CLR,SCT,0.00,WeatherDisplay:10.37,2013-01-20 17:50:00,
2013-01-20 12:51:00,73.2,63.6,30.12,NNE,25,1.1,1.2,72,0.00,CLR,SCT,0.00,WeatherDisplay:10.37,2013-01-20 17:51:00,
2013-01-20 12:52:00,73.3,62.9,30.12,NE,49,2.3,2.3,70,0.00,CLR,SCT,0.00,WeatherDisplay:10.37,2013-01-20 17:52:00,
2013-01-20 12:56:00,73.3,62.5,30.12,NE,41,3.5,3.5,69,0.00,CLR,SCT,0.00,WeatherDisplay:10.37,2013-01-20 17:56:00,
2013-01-20 12:57:00,73.2,62.8,30.12,NNE,27,3.5,3.5,70,0.00,CLR,SCT,0.00,WeatherDisplay:10.37,2013-01-20 17:57:00,
2013-01-20 13:01:00,72.7,62.3,30.12,NE,39,2.3,2.3,70,0.00,CLR,SCT,0.00,WeatherDisplay:10.37,2013-01-20 18:01:00,
2013-01-20 13:02:00,72.7,62.3,30.12,NNE,33,3.5,3.5,70,0.00,CLR,SCT,0.00,WeatherDisplay:10.37,2013-01-20 18:02:00,
2013-01-20 13:06:00,72.5,62.2,30.11,NE,48,3.5,3.5,70,0.00,CLR,SCT,0.00,WeatherDisplay:10.37,2013-01-20 18:06:00,
2013-01-20 13:07:00,72.5,62.2,30.11,North,358,4.6,4.6,70,0.00,CLR,SCT,0.00,WeatherDisplay:10.37,2013-01-20 18:07:00,
2013-01-20 13:08:00,72.4,62.5,30.11,North,352,4.6,4.6,71,0.00,CLR,SCT,0.00,WeatherDisplay:10.37,2013-01-20 18:08:00,
2013-01-20 13:11:00,72.2,62.3,30.11,NNE,25,1.1,0.0,71,0.00,CLR,SCT,0.00,WeatherDisplay:10.37,2013-01-20 18:11:00,
2013-01-20 13:12:00,72.1,62.2,30.11,North,356,0.0,0.2,71,0.00,CLR,SCT,0.00,WeatherDisplay:10.37,2013-01-20 18:12:00,
2013-01-20 13:13:00,72.1,62.2,30.11,NNE,16,1.1,0.0,71,0.00,CLR,SCT,0.00,WeatherDisplay:10.37,2013-01-20 18:13:00,
2013-01-20 13:16:00,72.0,62.1,30.11,NNE,20,1.1,1.1,71,0.00,CLR,SCT,0.00,WeatherDisplay:10.37,2013-01-20 18:16:00,
2013-01-20 13:17:00,72.0,62.1,30.11,NE,40,1.1,1.1,71,0.00,CLR,SCT,0.00,WeatherDisplay:10.37,2013-01-20 18:17:00,
2013-01-20 13:18:00,71.9,62.4,30.11,NNE,22,1.1,1.1,72,0.00,CLR,SCT,0.00,WeatherDisplay:10.37,2013-01-20 18:18:00,
2013-01-20 13:22:00,72.0,62.5,30.11,ENE,77,2.3,2.3,72,0.00,CLR,SCT,0.00,WeatherDisplay:10.37,2013-01-20 18:22:00,
2013-01-20 13:24:00,72.1,62.6,30.11,North,1,6.9,6.9,72,0.00,CLR,SCT,0.00,WeatherDisplay:10.37,2013-01-20 18:24:00,
2013-01-20 13:27:00,72.5,62.6,30.10,North,352,2.3,2.3,71,0.00,CLR,SCT,0.00,WeatherDisplay:10.37,2013-01-20 18:27:00,
2013-01-20 13:28:00,72.7,62.8,30.10,North,11,1.1,1.1,71,0.00,CLR,SCT,0.00,WeatherDisplay:10.37,2013-01-20 18:28:00,
2013-01-20 13:29:00,73.0,63.0,30.10,SW,223,2.3,2.3,71,0.00,CLR,SCT,0.00,WeatherDisplay:10.37,2013-01-20 18:29:00,
2013-01-20 13:32:00,73.8,63.0,30.10,West,278,1.1,1.1,69,0.00,CLR,SCT,0.00,WeatherDisplay:10.37,2013-01-20 18:32:00,
2013-01-20 13:33:00,73.9,63.1,30.10,NNW,339,1.1,1.1,69,0.00,CLR,SCT,0.00,WeatherDisplay:10.37,2013-01-20 18:33:00,
2013-01-20 13:34:00,74.2,63.0,30.10,NE,51,3.5,3.5,68,0.00,CLR,SCT,0.00,WeatherDisplay:10.37,2013-01-20 18:34:00,
2013-01-20 13:37:00,74.4,62.7,30.10,NW,325,2.3,2.3,67,0.00,CLR,SCT,0.00,WeatherDisplay:10.37,2013-01-20 18:37:00,
2013-01-20 13:38:00,74.4,63.1,30.10,NE,44,2.3,2.3,68,0.00,CLR,SCT,0.00,WeatherDisplay:10.37,2013-01-20 18:38:00,
2013-01-20 13:39:00,74.4,62.7,30.10,NE,39,1.1,1.1,67,0.00,CLR,SCT,0.00,WeatherDisplay:10.37,2013-01-20 18:39:00,
2013-01-20 13:42:00,74.1,62.0,30.10,North,9,2.3,2.3,66,0.00,CLR,SCT,0.00,WeatherDisplay:10.37,2013-01-20 18:42:00,
2013-01-20 13:43:00,74.0,62.3,30.10,North,9,1.0,0.0,67,0.00,CLR,SCT,0.00,WeatherDisplay:10.37,2013-01-20 18:43:00,
2013-01-20 13:44:00,73.9,62.2,30.10,NE,40,1.1,1.1,67,0.00,CLR,SCT,0.00,WeatherDisplay:10.37,2013-01-20 18:44:00,
2013-01-20 13:47:00,73.5,61.9,30.10,NNE,30,2.3,2.3,67,0.00,CLR,SCT,0.00,WeatherDisplay:10.37,2013-01-20 18:47:00,
2013-01-20 13:48:00,73.5,62.3,30.09,NNE,30,1.1,0.0,68,0.00,CLR,SCT,0.00,WeatherDisplay:10.37,2013-01-20 18:48:00,
2013-01-20 13:49:00,73.5,62.3,30.09,NNE,30,0.0,0.0,68,0.00,CLR,SCT,0.00,WeatherDisplay:10.37,2013-01-20 18:49:00,
2013-01-20 13:50:00,73.4,62.2,30.09,NNE,33,0.0,0.0,68,0.00,CLR,SCT,0.00,WeatherDisplay:10.37,2013-01-20 18:50:00,
2013-01-20 13:52:00,73.2,62.0,30.09,NNW,340,2.3,2.3,68,0.00,CLR,SCT,0.00,WeatherDisplay:10.37,2013-01-20 18:52:00,
2013-01-20 13:53:00,73.2,62.0,30.09,NE,55,2.3,2.3,68,0.00,CLR,SCT,0.00,WeatherDisplay:10.37,2013-01-20 18:53:00,
2013-01-20 13:54:00,73.1,61.9,30.09,NE,49,2.3,2.3,68,0.00,CLR,SCT,0.00,WeatherDisplay:10.37,2013-01-20 18:54:00,
2013-01-20 13:55:00,73.0,61.8,30.09,ENE,61,1.1,1.1,68,0.00,CLR,SCT,0.00,WeatherDisplay:10.37,2013-01-20 18:55:00,
2013-01-20 13:58:00,73.3,62.9,30.09,ENE,63,2.3,2.3,70,0.00,CLR,SCT,0.00,WeatherDisplay:10.37,2013-01-20 18:58:00,
2013-01-20 14:00:00,73.6,63.2,30.09,NE,49,0.0,3.0,70,0.00,CLR,SCT,0.00,WeatherDisplay:10.37,2013-01-20 19:00:00,
2013-01-20 14:03:00,74.4,62.7,30.09,West,259,4.6,4.6,67,0.00,CLR,SCT,0.00,WeatherDisplay:10.37,2013-01-20 19:03:00,
2013-01-20 14:04:00,74.5,62.8,30.09,NNW,333,3.5,3.5,67,0.00,CLR,SCT,0.00,WeatherDisplay:10.37,2013-01-20 19:04:00,
2013-01-20 14:05:00,74.5,62.4,30.09,NNE,30,3.5,3.5,66,0.00,CLR,SCT,0.00,WeatherDisplay:10.37,2013-01-20 19:05:00,
2013-01-20 14:08:00,74.4,62.7,30.09,NNE,12,3.5,3.5,67,0.00,CLR,SCT,0.00,WeatherDisplay:10.37,2013-01-20 19:08:00,
2013-01-20 14:09:00,74.4,62.3,30.09,NNE,12,1.1,1.1,66,0.00,CLR,SCT,0.00,WeatherDisplay:10.37,2013-01-20 19:09:00,
2013-01-20 14:10:00,74.4,62.7,30.09,North,11,1.1,1.1,67,0.00,CLR,SCT,0.00,WeatherDisplay:10.37,2013-01-20 19:10:00,
2013-01-20 14:13:00,74.1,62.4,30.08,NNE,23,3.5,3.5,67,0.00,CLR,SCT,0.00,WeatherDisplay:10.37,2013-01-20 19:13:00,
2013-01-20 14:14:00,74.1,62.4,30.08,ENE,70,2.3,2.3,67,0.00,CLR,SCT,0.00,WeatherDisplay:10.37,2013-01-20 19:14:00,
2013-01-20 14:15:00,73.9,61.8,30.08,NE,46,2.3,2.3,66,0.00,CLR,SCT,0.00,WeatherDisplay:10.37,2013-01-20 19:15:00,
2013-01-20 14:16:00,73.8,62.2,30.08,NE,46,3.5,3.5,67,0.00,CLR,SCT,0.00,WeatherDisplay:10.37,2013-01-20 19:16:00,
2013-01-20 14:19:00,73.6,62.4,30.08,ENE,70,1.1,1.1,68,0.00,CLR,SCT,0.00,WeatherDisplay:10.37,2013-01-20 19:19:00,
2013-01-20 14:20:00,73.8,62.6,30.08,NE,44,2.3,2.3,68,0.00,CLR,SCT,0.00,WeatherDisplay:10.37,2013-01-20 19:20:00,
2013-01-20 14:21:00,73.9,62.7,30.07,NE,49,3.0,3.0,68,0.00,CLR,SCT,0.00,WeatherDisplay:10.37,2013-01-20 19:21:00,
2013-01-20 14:24:00,74.2,63.0,30.07,NNE,13,1.1,1.1,68,0.00,CLR,SCT,0.00,WeatherDisplay:10.37,2013-01-20 19:24:00,
2013-01-20 14:25:00,74.4,62.7,30.07,NE,36,5.8,5.8,67,0.00,CLR,SCT,0.00,WeatherDisplay:10.37,2013-01-20 19:25:00,
2013-01-20 14:26:00,74.4,62.7,30.07,NNE,20,2.3,2.3,67,0.00,CLR,SCT,0.00,WeatherDisplay:10.37,2013-01-20 19:26:00,
2013-01-20 14:29:00,74.4,62.3,30.08,NNE,22,2.3,2.3,66,0.00,CLR,SCT,0.00,WeatherDisplay:10.37,2013-01-20 19:29:00,
2013-01-20 14:31:00,74.5,62.4,30.07,ENE,78,2.0,2.0,66,0.00,CLR,SCT,0.00,WeatherDisplay:10.37,2013-01-20 19:31:00,
2013-01-20 14:34:00,74.7,62.6,30.07,NNE,13,3.5,3.5,66,0.00,CLR,SCT,0.00,WeatherDisplay:10.37,2013-01-20 19:34:00,
2013-01-20 14:35:00,74.7,62.6,30.07,NNE,15,3.5,3.5,66,0.00,CLR,SCT,0.00,WeatherDisplay:10.37,2013-01-20 19:35:00,
2013-01-20 14:36:00,74.7,62.1,30.07,NNE,25,1.1,1.1,65,0.00,CLR,SCT,0.00,WeatherDisplay:10.37,2013-01-20 19:36:00,
2013-01-20 14:39:00,74.4,61.9,30.08,NE,40,3.5,3.5,65,0.00,CLR,SCT,0.00,WeatherDisplay:10.37,2013-01-20 19:39:00,
2013-01-20 14:40:00,74.4,61.9,30.08,NE,49,3.5,3.5,65,0.00,CLR,SCT,0.00,WeatherDisplay:10.37,2013-01-20 19:40:00,
2013-01-20 14:41:00,74.2,61.7,30.08,ENE,68,3.5,3.5,65,0.00,CLR,SCT,0.00,WeatherDisplay:10.37,2013-01-20 19:41:00,
2013-01-20 14:44:00,74.0,62.3,30.08,ENE,67,3.5,3.5,67,0.00,CLR,SCT,0.00,WeatherDisplay:10.37,2013-01-20 19:44:00,
2013-01-20 14:45:00,73.9,62.2,30.08,NE,44,3.5,3.5,67,0.00,CLR,SCT,0.00,WeatherDisplay:10.37,2013-01-20 19:45:00,
2013-01-20 14:46:00,74.0,62.3,30.07,ENE,75,2.3,2.3,67,0.00,CLR,SCT,0.00,WeatherDisplay:10.37,2013-01-20 19:46:00,
2013-01-20 14:47:00,74.1,62.4,30.07,ENE,75,3.5,3.5,67,0.00,CLR,SCT,0.00,WeatherDisplay:10.37,2013-01-20 19:47:00,
2013-01-20 14:49:00,74.2,62.1,30.07,North,11,1.1,1.1,66,0.00,CLR,SCT,0.00,WeatherDisplay:10.37,2013-01-20 19:49:00,
2013-01-20 14:50:00,74.1,62.0,30.07,NE,51,0.0,3.0,66,0.00,CLR,SCT,0.00,WeatherDisplay:10.37,2013-01-20 19:50:00,
2013-01-20 14:51:00,74.3,62.2,30.07,North,8,1.1,1.1,66,0.00,CLR,SCT,0.00,WeatherDisplay:10.37,2013-01-20 19:51:00,
2013-01-20 14:52:00,74.3,62.2,30.07,North,9,1.1,1.1,66,0.00,CLR,SCT,0.00,WeatherDisplay:10.37,2013-01-20 19:52:00,
2013-01-20 14:54:00,74.3,62.2,30.07,NW,325,3.5,3.5,66,0.00,CLR,SCT,0.00,WeatherDisplay:10.37,2013-01-20 19:54:00,
2013-01-20 14:55:00,74.3,62.2,30.07,North,359,3.5,3.5,66,0.00,CLR,SCT,0.00,WeatherDisplay:10.37,2013-01-20 19:55:00,
2013-01-20 14:57:00,74.3,62.2,30.07,NE,55,2.3,2.3,66,0.00,CLR,SCT,0.00,WeatherDisplay:10.37,2013-01-20 19:57:00,
2013-01-20 14:59:00,74.3,62.2,30.07,East,84,1.1,1.1,66,0.00,CLR,SCT,0.00,WeatherDisplay:10.37,2013-01-20 19:59:00,
2013-01-20 15:00:00,74.4,62.3,30.07,East,82,1.1,1.1,66,0.00,CLR,SCT,0.00,WeatherDisplay:10.37,2013-01-20 20:00:00,
2013-01-20 15:02:00,74.4,62.3,30.07,NNE,27,1.1,1.1,66,0.00,CLR,SCT,0.00,WeatherDisplay:10.37,2013-01-20 20:02:00,
2013-01-20 15:05:00,74.4,62.3,30.07,North,6,0.0,0.0,66,0.00,CLR,SCT,0.00,WeatherDisplay:10.37,2013-01-20 20:05:00,
2013-01-20 15:07:00,74.4,62.3,30.07,East,79,2.0,2.0,66,0.00,CLR,SCT,0.00,WeatherDisplay:10.37,2013-01-20 20:07:00,
2013-01-20 15:10:00,74.2,61.7,30.07,ENE,71,1.1,1.1,65,0.00,CLR,SCT,0.00,WeatherDisplay:10.37,2013-01-20 20:10:00,
2013-01-20 15:12:00,74.0,61.9,30.07,NE,36,2.0,2.0,66,0.00,CLR,SCT,0.00,WeatherDisplay:10.37,2013-01-20 20:12:00,
2013-01-20 15:15:00,73.7,61.6,30.07,ENE,68,3.5,3.5,66,0.00,CLR,SCT,0.00,WeatherDisplay:10.37,2013-01-20 20:15:00,
2013-01-20 15:17:00,73.5,61.4,30.07,ENE,61,0.0,0.0,66,0.00,CLR,SCT,0.00,WeatherDisplay:10.37,2013-01-20 20:17:00,
2013-01-20 15:20:00,73.3,61.3,30.07,ENE,58,1.1,1.1,66,0.00,CLR,SCT,0.00,WeatherDisplay:10.37,2013-01-20 20:20:00,
2013-01-20 15:22:00,73.1,61.5,30.07,ENE,58,2.3,2.3,67,0.00,CLR,SCT,0.00,WeatherDisplay:10.37,2013-01-20 20:22:00,
2013-01-20 15:25:00,72.9,61.3,30.07,North,8,3.5,3.5,67,0.00,CLR,SCT,0.00,WeatherDisplay:10.37,2013-01-20 20:25:00,
2013-01-20 15:27:00,72.9,62.1,30.07,NE,45,0.0,0.5,69,0.00,CLR,SCT,0.00,WeatherDisplay:10.37,2013-01-20 20:27:00,
2013-01-20 15:28:00,72.9,61.7,30.07,NE,49,2.3,2.3,68,0.00,CLR,SCT,0.00,WeatherDisplay:10.37,2013-01-20 20:28:00,
2013-01-20 15:30:00,72.9,61.7,30.07,NNE,19,2.3,2.3,68,0.00,CLR,SCT,0.00,WeatherDisplay:10.37,2013-01-20 20:30:00,
2013-01-20 15:31:00,73.0,61.8,30.07,NE,49,3.5,3.5,68,0.00,CLR,SCT,0.00,WeatherDisplay:10.37,2013-01-20 20:31:00,
2013-01-20 15:32:00,72.9,61.3,30.07,East,79,3.5,3.5,67,0.00,CLR,SCT,0.00,WeatherDisplay:10.37,2013-01-20 20:32:00,
2013-01-20 15:33:00,72.9,61.3,30.07,East,79,3.5,0.0,67,0.00,CLR,SCT,0.00,WeatherDisplay:10.37,2013-01-20 20:33:00,
2013-01-20 15:36:00,72.9,61.7,30.07,North,358,1.1,1.1,68,0.00,CLR,SCT,0.00,WeatherDisplay:10.37,2013-01-20 20:36:00,
2013-01-20 15:38:00,72.9,61.7,30.07,NE,46,1.1,1.1,68,0.00,CLR,SCT,0.00,WeatherDisplay:10.37,2013-01-20 20:38:00,
2013-01-20 15:41:00,72.8,61.6,30.07,East,79,3.5,3.5,68,0.00,CLR,SCT,0.00,WeatherDisplay:10.37,2013-01-20 20:41:00,
2013-01-20 15:43:00,72.8,61.6,30.07,NNE,33,1.1,0.0,68,0.00,CLR,SCT,0.00,WeatherDisplay:10.37,2013-01-20 20:43:00,
2013-01-20 15:46:00,72.9,62.1,30.07,NE,39,1.1,1.1,69,0.00,CLR,SCT,0.00,WeatherDisplay:10.37,2013-01-20 20:46:00,
2013-01-20 15:48:00,73.0,62.2,30.07,ENE,72,2.0,2.0,69,0.00,CLR,SCT,0.00,WeatherDisplay:10.37,2013-01-20 20:48:00,
2013-01-20 15:51:00,73.0,61.8,30.07,NE,53,3.5,3.5,68,0.00,CLR,SCT,0.00,WeatherDisplay:10.37,2013-01-20 20:51:00,
2013-01-20 15:52:00,73.0,61.8,30.07,NE,39,3.5,3.5,68,0.00,CLR,SCT,0.00,WeatherDisplay:10.37,2013-01-20 20:52:00,
2013-01-20 15:53:00,73.0,61.8,30.07,NNE,15,2.3,2.3,68,0.00,CLR,SCT,0.00,WeatherDisplay:10.37,2013-01-20 20:53:00,
2013-01-20 15:54:00,73.0,61.8,30.07,NNE,14,2.3,2.3,68,0.00,CLR,SCT,0.00,WeatherDisplay:10.37,2013-01-20 20:54:00,
2013-01-20 15:57:00,72.9,61.7,30.07,NE,39,1.1,1.1,68,0.00,CLR,SCT,0.00,WeatherDisplay:10.37,2013-01-20 20:57:00,
2013-01-20 15:58:00,72.9,61.7,30.07,NE,41,1.1,0.0,68,0.00,CLR,SCT,0.00,WeatherDisplay:10.37,2013-01-20 20:58:00,
2013-01-20 15:59:00,72.9,61.7,30.07,NE,41,0.0,0.0,68,0.00,CLR,SCT,0.00,WeatherDisplay:10.37,2013-01-20 20:59:00,
2013-01-20 16:02:00,72.9,61.7,30.07,NNW,345,1.1,1.1,68,0.00,CLR,SCT,0.00,WeatherDisplay:10.37,2013-01-20 21:02:00,
2013-01-20 16:03:00,72.8,61.6,30.08,NNE,20,1.1,1.1,68,0.00,CLR,SCT,0.00,WeatherDisplay:10.37,2013-01-20 21:03:00,
2013-01-20 16:04:00,72.7,61.5,30.08,North,6,2.3,2.3,68,0.00,CLR,SCT,0.00,WeatherDisplay:10.37,2013-01-20 21:04:00,
2013-01-20 16:08:00,72.5,61.3,30.07,NE,49,1.1,1.1,68,0.00,CLR,SCT,0.00,WeatherDisplay:10.37,2013-01-20 21:08:00,
2013-01-20 16:09:00,72.4,61.2,30.07,NE,49,1.1,0.0,68,0.00,CLR,SCT,0.00,WeatherDisplay:10.37,2013-01-20 21:09:00,
2013-01-20 16:13:00,72.4,61.7,30.07,NNW,335,1.1,1.1,69,0.00,CLR,SCT,0.00,WeatherDisplay:10.37,2013-01-20 21:13:00,
2013-01-20 16:14:00,72.4,61.7,30.07,North,360,1.1,0.0,69,0.00,CLR,SCT,0.00,WeatherDisplay:10.37,2013-01-20 21:14:00,
2013-01-20 16:18:00,72.5,61.3,30.07,North,349,1.1,1.1,68,0.00,CLR,SCT,0.00,WeatherDisplay:10.37,2013-01-20 21:18:00,
2013-01-20 16:19:00,72.6,61.4,30.07,North,350,0.0,0.0,68,0.00,CLR,SCT,0.00,WeatherDisplay:10.37,2013-01-20 21:19:00,
2013-01-20 16:23:00,72.7,61.9,30.08,NNE,24,1.1,1.1,69,0.00,CLR,SCT,0.00,WeatherDisplay:10.37,2013-01-20 21:23:00,
2013-01-20 16:24:00,72.8,62.0,30.08,ENE,68,2.3,2.3,69,0.00,CLR,SCT,0.00,WeatherDisplay:10.37,2013-01-20 21:24:00,
2013-01-20 16:28:00,72.6,61.8,30.08,East,83,4.6,4.6,69,0.00,CLR,SCT,0.00,WeatherDisplay:10.37,2013-01-20 21:28:00,
2013-01-20 16:29:00,72.6,61.8,30.08,ENE,78,2.3,2.3,69,0.00,CLR,SCT,0.00,WeatherDisplay:10.37,2013-01-20 21:29:00,
2013-01-20 16:33:00,72.4,61.7,30.08,SSE,165,2.3,2.3,69,0.00,CLR,SCT,0.00,WeatherDisplay:10.37,2013-01-20 21:33:00,
2013-01-20 16:34:00,72.4,61.7,30.08,SSW,207,0.0,0.0,69,0.00,CLR,SCT,0.00,WeatherDisplay:10.37,2013-01-20 21:34:00,
2013-01-20 16:39:00,72.2,61.5,30.08,East,94,1.1,1.1,69,0.00,CLR,SCT,0.00,WeatherDisplay:10.37,2013-01-20 21:39:00,
2013-01-20 16:40:00,72.1,61.4,30.08,NNE,27,2.3,2.3,69,0.00,CLR,SCT,0.00,WeatherDisplay:10.37,2013-01-20 21:40:00,
2013-01-20 16:44:00,71.6,61.3,30.08,NNE,27,1.1,0.0,70,0.00,CLR,SCT,0.00,WeatherDisplay:10.37,2013-01-20 21:44:00,
2013-01-20 16:45:00,71.5,61.2,30.08,SSW,207,1.1,1.1,70,0.00,CLR,SCT,0.00,WeatherDisplay:10.37,2013-01-20 21:45:00,
2013-01-20 16:49:00,71.3,61.4,30.08,SE,125,2.0,2.0,71,0.00,CLR,SCT,0.00,WeatherDisplay:10.37,2013-01-20 21:49:00,
2013-01-20 16:50:00,71.2,61.3,30.08,SE,138,2.3,2.3,71,0.00,CLR,SCT,0.00,WeatherDisplay:10.37,2013-01-20 21:50:00,
2013-01-20 16:51:00,71.2,61.3,30.07,ESE,122,2.3,2.3,71,0.00,CLR,SCT,0.00,WeatherDisplay:10.37,2013-01-20 21:51:00,
2013-01-20 16:54:00,70.9,61.0,30.08,NNW,340,1.1,0.0,71,0.00,CLR,SCT,0.00,WeatherDisplay:10.37,2013-01-20 21:54:00,
2013-01-20 16:55:00,70.9,61.0,30.08,SSW,197,1.1,1.1,71,0.00,CLR,SCT,0.00,WeatherDisplay:10.37,2013-01-20 21:55:00,
2013-01-20 16:56:00,70.8,60.9,30.07,South,174,0.0,0.0,71,0.00,CLR,SCT,0.00,WeatherDisplay:10.37,2013-01-20 21:56:00,
2013-01-20 17:00:00,70.5,61.0,30.08,NNE,18,2.3,2.3,72,0.00,CLR,SCT,0.00,WeatherDisplay:10.37,2013-01-20 22:00:00,
2013-01-20 17:01:00,70.4,60.9,30.08,NNE,15,1.1,1.1,72,0.00,CLR,SCT,0.00,WeatherDisplay:10.37,2013-01-20 22:01:00,
2013-01-20 17:05:00,70.2,61.1,30.08,SW,216,1.1,1.1,73,0.00,CLR,SCT,0.00,WeatherDisplay:10.37,2013-01-20 22:05:00,
2013-01-20 17:06:00,70.2,61.1,30.08,South,174,2.3,2.3,73,0.00,CLR,SCT,0.00,WeatherDisplay:10.37,2013-01-20 22:06:00,
2013-01-20 17:10:00,70.0,60.9,30.08,SSE,148,0.0,0.0,73,0.00,CLR,SCT,0.00,WeatherDisplay:10.37,2013-01-20 22:10:00,
2013-01-20 17:11:00,70.0,60.9,30.08,South,190,1.1,1.1,73,0.00,CLR,SCT,0.00,WeatherDisplay:10.37,2013-01-20 22:11:00,
2013-01-20 17:15:00,69.8,60.8,30.08,SSW,192,0.0,0.0,73,0.00,CLR,SCT,0.00,WeatherDisplay:10.37,2013-01-20 22:15:00,
2013-01-20 17:16:00,69.8,60.8,30.08,South,191,0.0,0.0,73,0.00,CLR,SCT,0.00,WeatherDisplay:10.37,2013-01-20 22:16:00,
2013-01-20 17:17:00,69.7,60.7,30.08,SSE,156,0.0,0.0,73,0.00,CLR,SCT,0.00,WeatherDisplay:10.37,2013-01-20 22:17:00,
2013-01-20 17:20:00,69.6,60.6,30.08,ESE,118,3.5,3.5,73,0.00,CLR,SCT,0.00,WeatherDisplay:10.37,2013-01-20 22:20:00,
2013-01-20 17:21:00,69.6,60.6,30.08,ENE,77,3.0,3.0,73,0.00,CLR,SCT,0.00,WeatherDisplay:10.37,2013-01-20 22:21:00,
2013-01-20 17:23:00,69.4,60.4,30.08,ENE,68,3.5,3.5,73,0.00,CLR,SCT,0.00,WeatherDisplay:10.37,2013-01-20 22:23:00,
2013-01-20 17:25:00,69.3,60.7,30.08,NE,38,1.1,1.1,74,0.00,CLR,SCT,0.00,WeatherDisplay:10.37,2013-01-20 22:25:00,
2013-01-20 17:26:00,69.3,60.7,30.08,NE,39,0.0,0.0,74,0.00,CLR,SCT,0.00,WeatherDisplay:10.37,2013-01-20 22:26:00,
2013-01-20 17:28:00,69.2,60.6,30.08,NE,39,0.0,0.0,74,0.00,CLR,SCT,0.00,WeatherDisplay:10.37,2013-01-20 22:28:00,
2013-01-20 17:30:00,69.1,60.5,30.08,ENE,57,2.3,2.3,74,0.00,CLR,SCT,0.00,WeatherDisplay:10.37,2013-01-20 22:30:00,
2013-01-20 17:31:00,69.0,60.4,30.08,NE,55,2.3,2.3,74,0.00,CLR,SCT,0.00,WeatherDisplay:10.37,2013-01-20 22:31:00,
2013-01-20 17:32:00,69.0,60.4,30.08,ENE,75,2.3,2.3,74,0.00,CLR,SCT,0.00,WeatherDisplay:10.37,2013-01-20 22:32:00,
2013-01-20 17:33:00,68.9,60.3,30.08,NE,50,1.1,1.1,74,0.00,CLR,SCT,0.00,WeatherDisplay:10.37,2013-01-20 22:33:00,
2013-01-20 17:36:00,68.7,60.5,30.08,NNW,335,1.1,0.0,75,0.00,CLR,SCT,0.00,WeatherDisplay:10.37,2013-01-20 22:36:00,
2013-01-20 17:37:00,68.6,60.4,30.08,North,352,0.0,0.0,75,0.00,CLR,SCT,0.00,WeatherDisplay:10.37,2013-01-20 22:37:00,
2013-01-20 17:38:00,68.5,60.3,30.08,NNE,32,2.3,2.3,75,0.00,CLR,SCT,0.00,WeatherDisplay:10.37,2013-01-20 22:38:00,
2013-01-20 17:41:00,68.4,60.2,30.08,ENE,73,1.1,0.0,75,0.00,CLR,SCT,0.00,WeatherDisplay:10.37,2013-01-20 22:41:00,
2013-01-20 17:42:00,68.3,60.1,30.08,ENE,74,0.0,0.0,75,0.00,CLR,SCT,0.00,WeatherDisplay:10.37,2013-01-20 22:42:00,
2013-01-20 17:43:00,68.1,59.9,30.08,ENE,74,0.0,0.0,75,0.00,CLR,SCT,0.00,WeatherDisplay:10.37,2013-01-20 22:43:00,
2013-01-20 17:46:00,67.9,60.1,30.08,ENE,73,0.0,0.0,76,0.00,CLR,SCT,0.00,WeatherDisplay:10.37,2013-01-20 22:46:00,
2013-01-20 17:47:00,67.9,60.1,30.08,ENE,74,0.0,0.0,76,0.00,CLR,SCT,0.00,WeatherDisplay:10.37,2013-01-20 22:47:00,
2013-01-20 17:49:00,67.7,59.9,30.08,ENE,73,0.0,0.0,76,0.00,CLR,SCT,0.00,WeatherDisplay:10.37,2013-01-20 22:49:00,
2013-01-20 17:52:00,67.5,60.0,30.09,ENE,73,0.0,0.0,77,0.00,CLR,SCT,0.00,WeatherDisplay:10.37,2013-01-20 22:52:00,
2013-01-20 17:53:00,67.5,60.0,30.09,ENE,73,0.0,0.0,77,0.00,CLR,SCT,0.00,WeatherDisplay:10.37,2013-01-20 22:53:00,
2013-01-20 17:54:00,67.3,59.8,30.09,ENE,74,0.0,0.0,77,0.00,CLR,SCT,0.00,WeatherDisplay:10.37,2013-01-20 22:54:00,
2013-01-20 17:57:00,67.0,59.9,30.09,ENE,77,1.1,0.0,78,0.00,CLR,SCT,0.00,WeatherDisplay:10.37,2013-01-20 22:57:00,
2013-01-20 17:58:00,67.0,59.9,30.09,ENE,76,1.0,0.0,78,0.00,CLR,SCT,0.00,WeatherDisplay:10.37,2013-01-20 22:58:00,
2013-01-20 17:59:00,66.9,59.8,30.09,ENE,76,1.1,0.0,78,0.00,CLR,SCT,0.00,WeatherDisplay:10.37,2013-01-20 22:59:00,
2013-01-20 18:02:00,66.7,59.6,30.09,ENE,77,0.0,0.0,78,0.00,CLR,SCT,0.00,WeatherDisplay:10.37,2013-01-20 23:02:00,
2013-01-20 18:03:00,66.7,59.6,30.09,ENE,77,0.0,0.0,78,0.00,CLR,SCT,0.00,WeatherDisplay:10.37,2013-01-20 23:03:00,
2013-01-20 18:04:00,66.6,59.5,30.09,ENE,76,0.0,0.0,78,0.00,CLR,SCT,0.00,WeatherDisplay:10.37,2013-01-20 23:04:00,
2013-01-20 18:07:00,66.3,59.6,30.09,ENE,76,0.0,0.0,79,0.00,CLR,SCT,0.00,WeatherDisplay:10.37,2013-01-20 23:07:00,
2013-01-20 18:08:00,66.3,59.6,30.09,ENE,77,0.0,0.0,79,0.00,CLR,SCT,0.00,WeatherDisplay:10.37,2013-01-20 23:08:00,
2013-01-20 18:09:00,66.2,59.5,30.09,ENE,76,0.0,0.0,79,0.00,CLR,SCT,0.00,WeatherDisplay:10.37,2013-01-20 23:09:00,
2013-01-20 18:13:00,65.9,59.6,30.09,ENE,76,0.0,0.0,80,0.00,CLR,SCT,0.00,WeatherDisplay:10.37,2013-01-20 23:13:00,
2013-01-20 18:14:00,65.9,59.6,30.09,ENE,77,0.0,0.0,80,0.00,CLR,SCT,0.00,WeatherDisplay:10.37,2013-01-20 23:14:00,
2013-01-20 18:18:00,65.5,59.5,30.09,ENE,76,0.0,0.0,81,0.00,CLR,SCT,0.00,WeatherDisplay:10.37,2013-01-20 23:18:00,
2013-01-20 18:19:00,65.5,59.5,30.09,ENE,77,0.0,0.0,81,0.00,CLR,SCT,0.00,WeatherDisplay:10.37,2013-01-20 23:19:00,
2013-01-20 18:23:00,65.1,59.5,30.09,ENE,77,0.0,0.0,82,0.00,CLR,SCT,0.00,WeatherDisplay:10.37,2013-01-20 23:23:00,
2013-01-20 18:24:00,65.0,59.4,30.09,ENE,76,0.0,0.0,82,0.00,CLR,SCT,0.00,WeatherDisplay:10.37,2013-01-20 23:24:00,
2013-01-20 18:25:00,65.0,59.4,30.09,ENE,77,0.0,0.0,82,0.00,CLR,SCT,0.00,WeatherDisplay:10.37,2013-01-20 23:25:00,
2013-01-20 18:29:00,64.6,59.0,30.09,ENE,74,1.1,0.0,82,0.00,CLR,SCT,0.00,WeatherDisplay:10.37,2013-01-20 23:29:00,
2013-01-20 18:30:00,64.6,59.0,30.09,ENE,76,0.0,1.0,82,0.00,CLR,SCT,0.00,WeatherDisplay:10.37,2013-01-20 23:30:00,
2013-01-20 18:34:00,64.3,58.7,30.09,ENE,74,0.0,0.0,82,0.00,CLR,SCT,0.00,WeatherDisplay:10.37,2013-01-20 23:34:00,
2013-01-20 18:35:00,64.3,58.7,30.09,ENE,74,0.0,0.0,82,0.00,CLR,SCT,0.00,WeatherDisplay:10.37,2013-01-20 23:35:00,
2013-01-20 18:39:00,64.3,58.7,30.09,NE,41,1.1,1.1,82,0.00,CLR,SCT,0.00,WeatherDisplay:10.37,2013-01-20 23:39:00,
2013-01-20 18:40:00,64.3,58.7,30.09,ENE,63,0.0,2.0,82,0.00,CLR,SCT,0.00,WeatherDisplay:10.37,2013-01-20 23:40:00,
2013-01-20 18:44:00,64.4,58.4,30.09,ENE,58,0.0,0.0,81,0.00,CLR,SCT,0.00,WeatherDisplay:10.37,2013-01-20 23:44:00,
2013-01-20 18:45:00,64.5,58.5,30.09,ENE,58,1.1,0.0,81,0.00,CLR,SCT,0.00,WeatherDisplay:10.37,2013-01-20 23:45:00,
2013-01-20 18:49:00,64.3,58.3,30.09,ENE,59,0.0,0.0,81,0.00,CLR,SCT,0.00,WeatherDisplay:10.37,2013-01-20 23:49:00,
2013-01-20 18:50:00,64.3,58.3,30.09,ENE,60,0.0,0.0,81,0.00,CLR,SCT,0.00,WeatherDisplay:10.37,2013-01-20 23:50:00,
2013-01-20 18:54:00,64.2,58.2,30.09,East,96,0.0,0.0,81,0.00,CLR,SCT,0.00,WeatherDisplay:10.37,2013-01-20 23:54:00,
2013-01-20 18:55:00,64.2,58.2,30.09,East,96,0.0,0.0,81,0.00,CLR,SCT,0.00,WeatherDisplay:10.37,2013-01-20 23:55:00,
2013-01-20 18:59:00,64.1,58.1,30.09,South,191,0.0,0.0,81,0.00,CLR,SCT,0.00,WeatherDisplay:10.37,2013-01-20 23:59:00,
2013-01-20 19:00:00,64.0,58.1,30.09,SSW,207,0.0,0.0,81,0.00,CLR,SCT,0.00,WeatherDisplay:10.37,2013-01-21 00:00:00,
2013-01-20 19:04:00,63.9,58.3,30.09,SE,139,0.0,0.0,82,0.00,CLR,SCT,0.00,WeatherDisplay:10.37,2013-01-21 00:04:00,
2013-01-20 19:05:00,63.8,58.2,30.09,SE,139,0.0,0.0,82,0.00,CLR,SCT,0.00,WeatherDisplay:10.37,2013-01-21 00:05:00,
2013-01-20 19:09:00,63.7,58.1,30.09,SE,139,0.0,0.0,82,0.00,CLR,SCT,0.00,WeatherDisplay:10.37,2013-01-21 00:09:00,
2013-01-20 19:10:00,63.7,58.1,30.10,SE,139,0.0,0.0,82,0.00,CLR,SCT,0.00,WeatherDisplay:10.37,2013-01-21 00:10:00,
2013-01-20 19:14:00,63.5,57.9,30.10,SE,140,1.1,0.0,82,0.00,CLR,SCT,0.00,WeatherDisplay:10.37,2013-01-21 00:14:00,
2013-01-20 19:15:00,63.4,58.1,30.10,SE,140,1.1,0.0,83,0.00,CLR,SCT,0.00,WeatherDisplay:10.37,2013-01-21 00:15:00,
2013-01-20 19:16:00,63.4,58.1,30.09,SE,139,1.1,0.0,83,0.00,CLR,SCT,0.00,WeatherDisplay:10.37,2013-01-21 00:16:00,
2013-01-20 19:19:00,63.3,58.0,30.10,NE,52,2.3,2.3,83,0.00,CLR,SCT,0.00,WeatherDisplay:10.37,2013-01-21 00:19:00,
2013-01-20 19:20:00,63.3,58.0,30.10,NE,53,2.3,0.0,83,0.00,CLR,SCT,0.00,WeatherDisplay:10.37,2013-01-21 00:20:00,
2013-01-20 19:21:00,63.3,58.0,30.10,NE,53,0.0,0.0,83,0.00,CLR,SCT,0.00,WeatherDisplay:10.37,2013-01-21 00:21:00,
2013-01-20 19:25:00,63.3,57.7,30.10,NW,312,2.3,2.3,82,0.00,CLR,SCT,0.00,WeatherDisplay:10.37,2013-01-21 00:25:00,
2013-01-20 19:26:00,63.2,57.6,30.09,North,1,2.3,2.3,82,0.00,CLR,SCT,0.00,WeatherDisplay:10.37,2013-01-21 00:26:00,
2013-01-20 19:30:00,63.3,57.7,30.09,ENE,58,1.1,1.1,82,0.00,CLR,SCT,0.00,WeatherDisplay:10.37,2013-01-21 00:30:00,
2013-01-20 19:31:00,63.3,57.7,30.09,ENE,58,1.1,1.1,82,0.00,CLR,SCT,0.00,WeatherDisplay:10.37,2013-01-21 00:31:00,
2013-01-20 19:35:00,63.3,57.7,30.10,ENE,60,1.1,0.0,82,0.00,CLR,SCT,0.00,WeatherDisplay:10.37,2013-01-21 00:35:00,
2013-01-20 19:36:00,63.3,57.7,30.10,ENE,61,0.0,0.0,82,0.00,CLR,SCT,0.00,WeatherDisplay:10.37,2013-01-21 00:36:00,
2013-01-20 19:37:00,63.3,57.7,30.10,ENE,61,0.0,0.0,82,0.00,CLR,SCT,0.00,WeatherDisplay:10.37,2013-01-21 00:37:00,
2013-01-20 19:40:00,63.2,57.6,30.10,East,96,1.1,1.1,82,0.00,CLR,SCT,0.00,WeatherDisplay:10.37,2013-01-21 00:40:00,
2013-01-20 19:41:00,63.2,57.6,30.10,East,96,0.0,0.0,82,0.00,CLR,SCT,0.00,WeatherDisplay:10.37,2013-01-21 00:41:00,
2013-01-20 19:42:00,63.1,57.5,30.10,East,96,0.0,0.1,82,0.00,CLR,SCT,0.00,WeatherDisplay:10.37,2013-01-21 00:42:00,
2013-01-20 19:45:00,63.0,57.4,30.10,ENE,59,1.1,1.1,82,0.00,CLR,SCT,0.00,WeatherDisplay:10.37,2013-01-21 00:45:00,
2013-01-20 19:46:00,63.0,57.4,30.10,ENE,59,1.1,0.0,82,0.00,CLR,SCT,0.00,WeatherDisplay:10.37,2013-01-21 00:46:00,
2013-01-20 19:47:00,62.9,57.3,30.10,ENE,59,1.1,0.0,82,0.00,CLR,SCT,0.00,WeatherDisplay:10.37,2013-01-21 00:47:00,
2013-01-20 19:50:00,62.8,57.6,30.10,ENE,59,0.0,0.0,83,0.00,CLR,SCT,0.00,WeatherDisplay:10.37,2013-01-21 00:50:00,
2013-01-20 19:52:00,62.7,57.5,30.10,ENE,59,0.0,0.0,83,0.00,CLR,SCT,0.00,WeatherDisplay:10.37,2013-01-21 00:52:00,
2013-01-20 19:55:00,62.5,57.3,30.10,ENE,59,0.0,0.0,83,0.00,CLR,SCT,0.00,WeatherDisplay:10.37,2013-01-21 00:55:00,
2013-01-20 19:57:00,62.4,57.2,30.10,ENE,59,0.0,0.0,83,0.00,CLR,SCT,0.00,WeatherDisplay:10.37,2013-01-21 00:57:00,
2013-01-20 19:58:00,62.3,57.1,30.10,ENE,59,0.0,0.0,83,0.00,CLR,SCT,0.00,WeatherDisplay:10.37,2013-01-21 00:58:00,
2013-01-20 20:00:00,62.2,57.3,30.10,SW,235,1.0,0.0,84,0.00,CLR,SCT,0.00,WeatherDisplay:10.37,2013-01-21 01:00:00,
2013-01-20 20:02:00,62.1,57.2,30.10,SSE,156,0.0,0.0,84,0.00,CLR,SCT,0.00,WeatherDisplay:10.37,2013-01-21 01:02:00,
2013-01-20 20:03:00,62.1,57.2,30.10,SSE,157,0.0,0.0,84,0.00,CLR,SCT,0.00,WeatherDisplay:10.37,2013-01-21 01:03:00,
2013-01-20 20:06:00,62.1,57.2,30.11,SE,145,0.0,0.0,84,0.00,CLR,SCT,0.00,WeatherDisplay:10.37,2013-01-21 01:06:00,
2013-01-20 20:07:00,62.1,57.2,30.11,SE,145,1.1,1.1,84,0.00,CLR,SCT,0.00,WeatherDisplay:10.37,2013-01-21 01:07:00,
2013-01-20 20:08:00,62.0,56.8,30.11,SSW,197,0.0,0.0,83,0.00,CLR,SCT,0.00,WeatherDisplay:10.37,2013-01-21 01:08:00,
2013-01-20 20:11:00,62.0,56.8,30.11,NNE,27,0.0,0.0,83,0.00,CLR,SCT,0.00,WeatherDisplay:10.37,2013-01-21 01:11:00,
2013-01-20 20:12:00,62.0,56.8,30.11,NE,52,0.0,0.0,83,0.00,CLR,SCT,0.00,WeatherDisplay:10.37,2013-01-21 01:12:00,
2013-01-20 20:13:00,61.9,56.3,30.11,NE,51,0.0,0.0,82,0.00,CLR,SCT,0.00,WeatherDisplay:10.37,2013-01-21 01:13:00,
2013-01-20 20:16:00,61.9,56.3,30.11,NE,51,0.0,0.0,82,0.00,CLR,SCT,0.00,WeatherDisplay:10.37,2013-01-21 01:16:00,
2013-01-20 20:17:00,61.9,56.3,30.11,NE,51,0.0,0.0,82,0.00,CLR,SCT,0.00,WeatherDisplay:10.37,2013-01-21 01:17:00,
2013-01-20 20:18:00,61.9,56.3,30.11,NE,51,0.0,0.0,82,0.00,CLR,SCT,0.00,WeatherDisplay:10.37,2013-01-21 01:18:00,
2013-01-20 20:21:00,61.8,56.2,30.11,NE,51,0.0,0.0,82,0.00,CLR,SCT,0.00,WeatherDisplay:10.37,2013-01-21 01:21:00,
2013-01-20 20:22:00,61.7,56.1,30.11,NE,51,0.0,0.0,82,0.00,CLR,SCT,0.00,WeatherDisplay:10.37,2013-01-21 01:22:00,
2013-01-20 20:23:00,61.7,56.1,30.11,NE,51,0.0,0.0,82,0.00,CLR,SCT,0.00,WeatherDisplay:10.37,2013-01-21 01:23:00,
2013-01-20 20:24:00,61.6,56.0,30.11,NE,51,0.0,0.0,82,0.00,CLR,SCT,0.00,WeatherDisplay:10.37,2013-01-21 01:24:00,
2013-01-20 20:26:00,61.5,56.0,30.11,NE,51,0.0,0.0,82,0.00,CLR,SCT,0.00,WeatherDisplay:10.37,2013-01-21 01:26:00,
2013-01-20 20:27:00,61.5,56.0,30.11,NE,51,0.0,0.0,82,0.00,CLR,SCT,0.00,WeatherDisplay:10.37,2013-01-21 01:27:00,
2013-01-20 20:28:00,61.4,55.9,30.11,NE,51,0.0,0.0,82,0.00,CLR,SCT,0.00,WeatherDisplay:10.37,2013-01-21 01:28:00,
2013-01-20 20:29:00,61.4,55.9,30.11,NE,51,0.0,0.0,82,0.00,CLR,SCT,0.00,WeatherDisplay:10.37,2013-01-21 01:29:00,
2013-01-20 20:31:00,61.3,55.8,30.11,NE,51,0.0,0.0,82,0.00,CLR,SCT,0.00,WeatherDisplay:10.37,2013-01-21 01:31:00,
2013-01-20 20:33:00,61.2,55.7,30.11,ENE,76,0.0,0.0,82,0.00,CLR,SCT,0.00,WeatherDisplay:10.37,2013-01-21 01:33:00,
2013-01-20 20:34:00,61.2,55.7,30.11,East,79,0.0,0.0,82,0.00,CLR,SCT,0.00,WeatherDisplay:10.37,2013-01-21 01:34:00,
2013-01-20 20:36:00,61.2,56.0,30.11,East,79,0.0,0.0,83,0.00,CLR,SCT,0.00,WeatherDisplay:10.37,2013-01-21 01:36:00,
2013-01-20 20:38:00,61.2,56.0,30.11,SSW,208,1.1,1.1,83,0.00,CLR,SCT,0.00,WeatherDisplay:10.37,2013-01-21 01:38:00,
2013-01-20 20:39:00,61.1,55.9,30.11,SSW,208,0.0,0.0,83,0.00,CLR,SCT,0.00,WeatherDisplay:10.37,2013-01-21 01:39:00,
2013-01-20 20:42:00,61.1,55.9,30.11,SSW,208,0.0,0.0,83,0.00,CLR,SCT,0.00,WeatherDisplay:10.37,2013-01-21 01:42:00,
2013-01-20 20:43:00,61.1,55.9,30.12,SSW,208,0.0,0.0,83,0.00,CLR,SCT,0.00,WeatherDisplay:10.37,2013-01-21 01:43:00,
2013-01-20 20:44:00,61.1,55.9,30.11,SSE,168,2.3,2.3,83,0.00,CLR,SCT,0.00,WeatherDisplay:10.37,2013-01-21 01:44:00,
2013-01-20 20:45:00,61.1,55.9,30.11,SSE,168,1.1,0.0,83,0.00,CLR,SCT,0.00,WeatherDisplay:10.37,2013-01-21 01:45:00,
2013-01-20 20:47:00,61.1,55.9,30.11,SSE,168,0.0,0.0,83,0.00,CLR,SCT,0.00,WeatherDisplay:10.37,2013-01-21 01:47:00,
2013-01-20 20:49:00,61.1,55.9,30.11,SSE,166,0.0,0.0,83,0.00,CLR,SCT,0.00,WeatherDisplay:10.37,2013-01-21 01:49:00,
2013-01-20 20:50:00,61.1,55.9,30.12,SSE,166,0.0,0.0,83,0.00,CLR,SCT,0.00,WeatherDisplay:10.37,2013-01-21 01:50:00,
2013-01-20 20:52:00,61.2,56.0,30.12,SSE,166,0.0,0.0,83,0.00,CLR,SCT,0.00,WeatherDisplay:10.37,2013-01-21 01:52:00,
2013-01-20 20:54:00,61.4,55.9,30.11,NE,55,2.3,2.3,82,0.00,CLR,SCT,0.00,WeatherDisplay:10.37,2013-01-21 01:54:00,
2013-01-20 20:55:00,61.4,55.9,30.11,NE,56,0.0,0.0,82,0.00,CLR,SCT,0.00,WeatherDisplay:10.37,2013-01-21 01:55:00,
2013-01-20 20:57:00,61.6,55.7,30.11,NE,55,0.0,0.0,81,0.00,CLR,SCT,0.00,WeatherDisplay:10.37,2013-01-21 01:57:00,
2013-01-20 20:59:00,61.7,55.8,30.11,NE,55,0.0,0.0,81,0.00,CLR,SCT,0.00,WeatherDisplay:10.37,2013-01-21 01:59:00,
2013-01-20 21:00:00,61.8,55.9,30.11,NE,56,0.0,0.0,81,0.00,CLR,SCT,0.00,WeatherDisplay:10.37,2013-01-21 02:00:00,
2013-01-20 21:03:00,61.9,56.0,30.11,NNE,20,0.0,0.0,81,0.00,CLR,SCT,0.00,WeatherDisplay:10.37,2013-01-21 02:03:00,
2013-01-20 21:04:00,61.9,55.7,30.11,NNW,340,0.0,0.0,80,0.00,CLR,SCT,0.00,WeatherDisplay:10.37,2013-01-21 02:04:00,
2013-01-20 21:05:00,61.9,55.7,30.11,NNW,340,0.0,0.0,80,0.00,CLR,SCT,0.00,WeatherDisplay:10.37,2013-01-21 02:05:00,
2013-01-20 21:08:00,62.0,55.8,30.11,NE,42,1.1,0.0,80,0.00,CLR,SCT,0.00,WeatherDisplay:10.37,2013-01-21 02:08:00,
2013-01-20 21:09:00,62.1,56.2,30.11,NE,43,0.0,0.0,81,0.00,CLR,SCT,0.00,WeatherDisplay:10.37,2013-01-21 02:09:00,
2013-01-20 21:10:00,62.1,56.2,30.11,NE,43,0.0,0.0,81,0.00,CLR,SCT,0.00,WeatherDisplay:10.37,2013-01-21 02:10:00,
2013-01-20 21:11:00,62.1,56.2,30.12,NE,43,0.0,0.0,81,0.00,CLR,SCT,0.00,WeatherDisplay:10.37,2013-01-21 02:11:00,
2013-01-20 21:13:00,62.1,56.2,30.12,NE,42,0.0,0.0,81,0.00,CLR,SCT,0.00,WeatherDisplay:10.37,2013-01-21 02:13:00,
2013-01-20 21:14:00,62.0,56.1,30.12,NE,43,0.0,0.0,81,0.00,CLR,SCT,0.00,WeatherDisplay:10.37,2013-01-21 02:14:00,
2013-01-20 21:15:00,62.0,56.1,30.12,NE,43,0.0,0.0,81,0.00,CLR,SCT,0.00,WeatherDisplay:10.37,2013-01-21 02:15:00,
2013-01-20 21:16:00,62.0,56.1,30.12,NE,43,0.0,0.0,81,0.00,CLR,SCT,0.00,WeatherDisplay:10.37,2013-01-21 02:16:00,
2013-01-20 21:18:00,62.0,56.1,30.12,NE,43,0.0,0.0,81,0.00,CLR,SCT,0.00,WeatherDisplay:10.37,2013-01-21 02:18:00,
2013-01-20 21:19:00,62.0,56.1,30.12,NE,43,0.0,0.0,81,0.00,CLR,SCT,0.00,WeatherDisplay:10.37,2013-01-21 02:19:00,
2013-01-20 21:20:00,61.9,56.0,30.12,NE,43,0.0,0.0,81,0.00,CLR,SCT,0.00,WeatherDisplay:10.37,2013-01-21 02:20:00,
2013-01-20 21:21:00,61.9,56.0,30.12,NE,43,0.0,0.0,81,0.00,CLR,SCT,0.00,WeatherDisplay:10.37,2013-01-21 02:21:00,
2013-01-20 21:24:00,61.9,55.7,30.12,NE,53,0.0,0.0,80,0.00,CLR,SCT,0.00,WeatherDisplay:10.37,2013-01-21 02:24:00,
2013-01-20 21:25:00,62.0,55.8,30.12,NE,53,0.0,0.0,80,0.00,CLR,SCT,0.00,WeatherDisplay:10.37,2013-01-21 02:25:00,
2013-01-20 21:26:00,62.0,55.8,30.12,NE,53,0.0,0.0,80,0.00,CLR,SCT,0.00,WeatherDisplay:10.37,2013-01-21 02:26:00,
2013-01-20 21:29:00,62.0,55.8,30.12,NE,53,0.0,0.0,80,0.00,CLR,SCT,0.00,WeatherDisplay:10.37,2013-01-21 02:29:00,
2013-01-20 21:30:00,62.0,55.4,30.12,NE,53,0.0,0.0,79,0.00,CLR,SCT,0.00,WeatherDisplay:10.37,2013-01-21 02:30:00,
2013-01-20 21:31:00,62.0,55.4,30.12,NE,53,0.0,0.0,79,0.00,CLR,SCT,0.00,WeatherDisplay:10.37,2013-01-21 02:31:00,
2013-01-20 21:32:00,62.0,55.4,30.12,NE,53,0.0,0.0,79,0.00,CLR,SCT,0.00,WeatherDisplay:10.37,2013-01-21 02:32:00,
2013-01-20 21:34:00,62.0,55.4,30.12,NE,53,0.0,0.0,79,0.00,CLR,SCT,0.00,WeatherDisplay:10.37,2013-01-21 02:34:00,
2013-01-20 21:35:00,62.0,55.4,30.12,NE,53,0.0,0.0,79,0.00,CLR,SCT,0.00,WeatherDisplay:10.37,2013-01-21 02:35:00,
2013-01-20 21:36:00,62.0,55.4,30.12,NE,53,0.0,0.0,79,0.00,CLR,SCT,0.00,WeatherDisplay:10.37,2013-01-21 02:36:00,
2013-01-20 21:38:00,62.0,55.4,30.12,NE,52,0.0,0.0,79,0.00,CLR,SCT,0.00,WeatherDisplay:10.37,2013-01-21 02:38:00,
2013-01-20 21:39:00,62.0,55.8,30.12,NE,53,0.0,0.0,80,0.00,CLR,SCT,0.00,WeatherDisplay:10.37,2013-01-21 02:39:00,
2013-01-20 21:40:00,62.1,55.5,30.12,NE,53,0.0,0.0,79,0.00,CLR,SCT,0.00,WeatherDisplay:10.37,2013-01-21 02:40:00,
2013-01-20 21:41:00,62.1,55.9,30.12,NE,52,0.0,0.0,80,0.00,CLR,SCT,0.00,WeatherDisplay:10.37,2013-01-21 02:41:00,
2013-01-20 21:43:00,62.1,55.9,30.12,NE,53,0.0,0.0,80,0.00,CLR,SCT,0.00,WeatherDisplay:10.37,2013-01-21 02:43:00,
2013-01-20 21:44:00,62.1,55.9,30.12,NE,53,0.0,0.0,80,0.00,CLR,SCT,0.00,WeatherDisplay:10.37,2013-01-21 02:44:00,
2013-01-20 21:45:00,62.1,55.9,30.12,NE,53,1.1,0.0,80,0.00,CLR,SCT,0.00,WeatherDisplay:10.37,2013-01-21 02:45:00,
2013-01-20 21:46:00,62.1,55.9,30.12,NE,53,0.0,0.0,80,0.00,CLR,SCT,0.00,WeatherDisplay:10.37,2013-01-21 02:46:00,
2013-01-20 21:49:00,62.1,55.5,30.12,NE,53,0.0,0.0,79,0.00,CLR,SCT,0.00,WeatherDisplay:10.37,2013-01-21 02:49:00,
2013-01-20 21:50:00,62.1,55.5,30.12,NE,53,0.0,0.0,79,0.00,CLR,SCT,0.00,WeatherDisplay:10.37,2013-01-21 02:50:00,
2013-01-20 21:51:00,62.1,55.5,30.12,NE,53,0.0,0.0,79,0.00,CLR,SCT,0.00,WeatherDisplay:10.37,2013-01-21 02:51:00,
2013-01-20 21:54:00,62.0,55.4,30.12,SSW,197,0.0,0.0,79,0.00,CLR,SCT,0.00,WeatherDisplay:10.37,2013-01-21 02:54:00,
2013-01-20 21:56:00,62.0,55.4,30.12,SE,146,1.1,1.1,79,0.00,CLR,SCT,0.00,WeatherDisplay:10.37,2013-01-21 02:56:00,
2013-01-20 21:57:00,62.0,55.4,30.12,SE,146,1.1,1.1,79,0.00,CLR,SCT,0.00,WeatherDisplay:10.37,2013-01-21 02:57:00,
2013-01-20 21:59:00,62.0,55.4,30.12,SE,146,0.0,0.0,79,0.00,CLR,SCT,0.00,WeatherDisplay:10.37,2013-01-21 02:59:00,
2013-01-20 22:00:00,62.0,55.4,30.12,SE,146,0.0,0.0,79,0.00,CLR,SCT,0.00,WeatherDisplay:10.37,2013-01-21 03:00:00,
2013-01-20 22:02:00,62.0,55.4,30.12,SE,129,0.0,0.0,79,0.00,CLR,SCT,0.00,WeatherDisplay:10.37,2013-01-21 03:02:00,
2013-01-20 22:04:00,62.0,55.4,30.12,SSW,207,1.1,1.1,79,0.00,CLR,SCT,0.00,WeatherDisplay:10.37,2013-01-21 03:04:00,
2013-01-20 22:05:00,62.1,55.5,30.12,SSW,207,0.0,0.0,79,0.00,CLR,SCT,0.00,WeatherDisplay:10.37,2013-01-21 03:05:00,
2013-01-20 22:07:00,62.1,55.5,30.12,SSW,207,0.0,0.0,79,0.00,CLR,SCT,0.00,WeatherDisplay:10.37,2013-01-21 03:07:00,
2013-01-20 22:08:00,62.1,55.5,30.12,SSW,207,0.0,0.0,79,0.00,CLR,SCT,0.00,WeatherDisplay:10.37,2013-01-21 03:08:00,
2013-01-20 22:09:00,62.1,55.2,30.12,SSW,207,0.0,0.0,78,0.00,CLR,SCT,0.00,WeatherDisplay:10.37,2013-01-21 03:09:00,
2013-01-20 22:10:00,62.1,55.2,30.12,SSW,207,0.0,0.0,78,0.00,CLR,SCT,0.00,WeatherDisplay:10.37,2013-01-21 03:10:00,
2013-01-20 22:13:00,62.1,55.2,30.12,SSW,207,0.0,0.0,78,0.00,CLR,SCT,0.00,WeatherDisplay:10.37,2013-01-21 03:13:00,
2013-01-20 22:14:00,62.1,55.2,30.12,SSW,207,0.0,0.0,78,0.00,CLR,SCT,0.00,WeatherDisplay:10.37,2013-01-21 03:14:00,
2013-01-20 22:15:00,62.1,55.5,30.12,SSW,207,0.0,0.0,79,0.00,CLR,SCT,0.00,WeatherDisplay:10.37,2013-01-21 03:15:00,
2013-01-20 22:18:00,62.1,55.2,30.13,South,172,0.0,0.0,78,0.00,CLR,SCT,0.00,WeatherDisplay:10.37,2013-01-21 03:18:00,
2013-01-20 22:19:00,62.1,55.2,30.13,South,172,0.0,0.0,78,0.00,CLR,SCT,0.00,WeatherDisplay:10.37,2013-01-21 03:19:00,
2013-01-20 22:20:00,62.1,55.5,30.13,South,172,0.0,0.0,79,0.00,CLR,SCT,0.00,WeatherDisplay:10.37,2013-01-21 03:20:00,
2013-01-20 22:23:00,62.1,55.2,30.13,South,172,0.0,0.0,78,0.00,CLR,SCT,0.00,WeatherDisplay:10.37,2013-01-21 03:23:00,
2013-01-20 22:24:00,62.1,55.5,30.13,South,172,0.0,0.0,79,0.00,CLR,SCT,0.00,WeatherDisplay:10.37,2013-01-21 03:24:00,
2013-01-20 22:25:00,62.1,55.5,30.13,South,172,0.0,0.0,79,0.00,CLR,SCT,0.00,WeatherDisplay:10.37,2013-01-21 03:25:00,
2013-01-20 22:28:00,62.1,55.5,30.12,South,172,0.0,0.0,79,0.00,CLR,SCT,0.00,WeatherDisplay:10.37,2013-01-21 03:28:00,
2013-01-20 22:30:00,62.1,55.5,30.12,South,172,0.0,0.0,79,0.00,CLR,SCT,0.00,WeatherDisplay:10.37,2013-01-21 03:30:00,
2013-01-20 22:33:00,62.1,55.5,30.12,South,172,0.0,0.0,79,0.00,CLR,SCT,0.00,WeatherDisplay:10.37,2013-01-21 03:33:00,
2013-01-20 22:35:00,62.0,55.4,30.12,South,172,0.0,0.0,79,0.00,CLR,SCT,0.00,WeatherDisplay:10.37,2013-01-21 03:35:00,
2013-01-20 22:38:00,62.0,55.4,30.12,South,172,0.0,0.0,79,0.00,CLR,SCT,0.00,WeatherDisplay:10.37,2013-01-21 03:38:00,
2013-01-20 22:39:00,62.0,55.4,30.12,South,172,0.0,0.0,79,0.00,CLR,SCT,0.00,WeatherDisplay:10.37,2013-01-21 03:39:00,
2013-01-20 22:40:00,62.0,55.4,30.12,South,172,0.0,0.0,79,0.00,CLR,SCT,0.00,WeatherDisplay:10.37,2013-01-21 03:40:00,
2013-01-20 22:41:00,62.0,55.4,30.12,South,172,0.0,0.0,79,0.00,CLR,SCT,0.00,WeatherDisplay:10.37,2013-01-21 03:41:00,
2013-01-20 22:43:00,62.0,55.4,30.12,South,172,0.0,0.0,79,0.00,CLR,SCT,0.00,WeatherDisplay:10.37,2013-01-21 03:43:00,
2013-01-20 22:44:00,62.0,55.4,30.12,South,172,0.0,0.0,79,0.00,CLR,SCT,0.00,WeatherDisplay:10.37,2013-01-21 03:44:00,
2013-01-20 22:45:00,62.0,55.4,30.12,South,172,0.0,0.0,79,0.00,CLR,SCT,0.00,WeatherDisplay:10.37,2013-01-21 03:45:00,
2013-01-20 22:46:00,62.0,55.4,30.12,South,172,0.0,0.0,79,0.00,CLR,SCT,0.00,WeatherDisplay:10.37,2013-01-21 03:46:00,
2013-01-20 22:48:00,62.1,55.5,30.12,South,173,0.0,0.0,79,0.00,CLR,SCT,0.00,WeatherDisplay:10.37,2013-01-21 03:48:00,
2013-01-20 22:49:00,62.1,55.5,30.12,South,174,0.0,0.0,79,0.00,CLR,SCT,0.00,WeatherDisplay:10.37,2013-01-21 03:49:00,
2013-01-20 22:50:00,62.1,55.5,30.12,South,173,0.0,0.0,79,0.00,CLR,SCT,0.00,WeatherDisplay:10.37,2013-01-21 03:50:00,
2013-01-20 22:51:00,62.1,55.5,30.12,South,173,0.0,0.0,79,0.00,CLR,SCT,0.00,WeatherDisplay:10.37,2013-01-21 03:51:00,
2013-01-20 22:54:00,62.0,55.4,30.12,South,174,0.0,0.0,79,0.00,CLR,SCT,0.00,WeatherDisplay:10.37,2013-01-21 03:54:00,
2013-01-20 22:55:00,62.0,55.4,30.12,South,173,0.0,0.0,79,0.00,CLR,SCT,0.00,WeatherDisplay:10.37,2013-01-21 03:55:00,
2013-01-20 22:56:00,62.1,55.5,30.12,South,173,0.0,0.0,79,0.00,CLR,SCT,0.00,WeatherDisplay:10.37,2013-01-21 03:56:00,
2013-01-20 22:59:00,62.0,55.4,30.12,South,173,0.0,0.0,79,0.00,CLR,SCT,0.00,WeatherDisplay:10.37,2013-01-21 03:59:00,
2013-01-20 23:00:00,62.0,55.4,30.12,South,173,0.0,0.0,79,0.00,CLR,SCT,0.00,WeatherDisplay:10.37,2013-01-21 04:00:00,
2013-01-20 23:02:00,62.0,55.4,30.12,South,173,0.0,0.0,79,0.00,CLR,SCT,0.00,WeatherDisplay:10.37,2013-01-21 04:02:00,
2013-01-20 23:04:00,62.1,55.5,30.12,South,174,0.0,0.0,79,0.00,CLR,SCT,0.00,WeatherDisplay:10.37,2013-01-21 04:04:00,
2013-01-20 23:05:00,62.0,55.4,30.12,South,173,0.0,0.0,79,0.00,CLR,SCT,0.00,WeatherDisplay:10.37,2013-01-21 04:05:00,
2013-01-20 23:07:00,62.0,55.4,30.12,South,173,0.0,0.0,79,0.00,CLR,SCT,0.00,WeatherDisplay:10.37,2013-01-21 04:07:00,
2013-01-20 23:09:00,62.0,55.4,30.12,South,173,0.0,0.0,79,0.00,CLR,SCT,0.00,WeatherDisplay:10.37,2013-01-21 04:09:00,
2013-01-20 23:11:00,62.0,55.4,30.12,South,173,0.0,0.0,79,0.00,CLR,SCT,0.00,WeatherDisplay:10.37,2013-01-21 04:11:00,
2013-01-20 23:12:00,62.0,55.4,30.12,South,173,0.0,0.0,79,0.00,CLR,SCT,0.00,WeatherDisplay:10.37,2013-01-21 04:12:00,
2013-01-20 23:14:00,62.0,55.4,30.12,South,173,0.0,0.0,79,0.00,CLR,SCT,0.00,WeatherDisplay:10.37,2013-01-21 04:14:00,
2013-01-20 23:16:00,62.0,55.4,30.12,South,173,0.0,0.0,79,0.00,CLR,SCT,0.00,WeatherDisplay:10.37,2013-01-21 04:16:00,
2013-01-20 23:17:00,62.0,55.4,30.12,South,173,0.0,0.0,79,0.00,CLR,SCT,0.00,WeatherDisplay:10.37,2013-01-21 04:17:00,
2013-01-20 23:19:00,61.9,55.3,30.11,South,173,0.0,0.0,79,0.00,CLR,SCT,0.00,WeatherDisplay:10.37,2013-01-21 04:19:00,
2013-01-20 23:20:00,61.9,55.3,30.11,South,173,0.0,0.0,79,0.00,CLR,SCT,0.00,WeatherDisplay:10.37,2013-01-21 04:20:00,
2013-01-20 23:22:00,61.9,55.7,30.11,South,174,0.0,0.0,80,0.00,CLR,SCT,0.00,WeatherDisplay:10.37,2013-01-21 04:22:00,
2013-01-20 23:23:00,61.9,55.7,30.11,South,173,0.0,0.0,80,0.00,CLR,SCT,0.00,WeatherDisplay:10.37,2013-01-21 04:23:00,
2013-01-20 23:24:00,61.9,55.7,30.11,South,173,0.0,0.0,80,0.00,CLR,SCT,0.00,WeatherDisplay:10.37,2013-01-21 04:24:00,
2013-01-20 23:25:00,61.9,55.7,30.11,South,173,0.0,0.0,80,0.00,CLR,SCT,0.00,WeatherDisplay:10.37,2013-01-21 04:25:00,
2013-01-20 23:28:00,61.9,55.7,30.11,South,173,0.0,0.0,80,0.00,CLR,SCT,0.00,WeatherDisplay:10.37,2013-01-21 04:28:00,
2013-01-20 23:29:00,61.9,55.7,30.11,South,173,0.0,0.0,80,0.00,CLR,SCT,0.00,WeatherDisplay:10.37,2013-01-21 04:29:00,
2013-01-20 23:30:00,61.9,55.7,30.11,South,174,0.0,0.0,80,0.00,CLR,SCT,0.00,WeatherDisplay:10.37,2013-01-21 04:30:00,
2013-01-20 23:33:00,61.9,55.7,30.11,South,173,0.0,0.0,80,0.00,CLR,SCT,0.00,WeatherDisplay:10.37,2013-01-21 04:33:00,
2013-01-20 23:34:00,61.9,55.7,30.11,South,173,0.0,0.0,80,0.00,CLR,SCT,0.00,WeatherDisplay:10.37,2013-01-21 04:34:00,
2013-01-20 23:35:00,61.9,55.7,30.11,SW,233,0.0,0.0,80,0.00,CLR,SCT,0.00,WeatherDisplay:10.37,2013-01-21 04:35:00,
2013-01-20 23:38:00,61.9,55.7,30.11,West,276,0.0,0.0,80,0.00,CLR,SCT,0.00,WeatherDisplay:10.37,2013-01-21 04:38:00,
2013-01-20 23:39:00,61.9,55.7,30.11,West,276,0.0,0.0,80,0.00,CLR,SCT,0.00,WeatherDisplay:10.37,2013-01-21 04:39:00,
2013-01-20 23:41:00,61.9,55.7,30.11,West,276,0.0,0.0,80,0.00,CLR,SCT,0.00,WeatherDisplay:10.37,2013-01-21 04:41:00,
2013-01-20 23:43:00,61.9,55.7,30.11,West,276,0.0,0.0,80,0.00,CLR,SCT,0.00,WeatherDisplay:10.37,2013-01-21 04:43:00,
2013-01-20 23:45:00,61.9,55.7,30.11,West,276,0.0,0.0,80,0.00,CLR,SCT,0.00,WeatherDisplay:10.37,2013-01-21 04:45:00,
2013-01-20 23:46:00,61.9,56.0,30.11,West,276,1.0,1.0,81,0.00,CLR,SCT,0.00,WeatherDisplay:10.37,2013-01-21 04:46:00,
2013-01-20 23:48:00,61.9,55.7,30.11,West,276,0.0,0.0,80,0.00,CLR,SCT,0.00,WeatherDisplay:10.37,2013-01-21 04:48:00,
2013-01-20 23:50:00,61.9,56.0,30.11,West,276,0.0,0.0,81,0.00,CLR,SCT,0.00,WeatherDisplay:10.37,2013-01-21 04:50:00,
2013-01-20 23:51:00,61.9,56.0,30.11,West,276,0.0,0.0,81,0.00,CLR,SCT,0.00,WeatherDisplay:10.37,2013-01-21 04:51:00,
2013-01-20 23:54:00,61.9,56.0,30.12,West,275,0.0,0.0,81,0.00,CLR,SCT,0.00,WeatherDisplay:10.37,2013-01-21 04:54:00,
2013-01-20 23:55:00,61.9,56.0,30.12,West,276,0.0,0.0,81,0.00,CLR,SCT,0.00,WeatherDisplay:10.37,2013-01-21 04:55:00,
2013-01-20 23:56:00,61.9,56.0,30.11,West,276,0.0,0.0,81,0.00,CLR,SCT,0.00,WeatherDisplay:10.37,2013-01-21 04:56:00,
2013-01-20 23:59:00,61.8,55.9,30.11,West,276,0.0,0.0,81,0.00,CLR,SCT,0.00,WeatherDisplay:10.37,2013-01-21 04:59:00,